<?xml version="1.0" encoding="UTF-8" standalone="no" ?>
<gpx xmlns="http://www.topografix.com/GPX/1/1" xmlns:xsi="http://www.w3.org/2001/XMLSchema-instance" xsi:schemaLocation="http://www.topografix.com/GPX/1/1 http://www.topografix.com/GPX/1/1/gpx.xsd" version="1.1" creator="VisuGPX - https://www.visugpx.com">
  <metadata>
    <name>Leguevin - Bouconne circuit 1</name>
    <desc><![CDATA[Leguevin - Bouconne circuit court]]></desc>
  </metadata>
  <trk>
    <name><![CDATA[Leguevin - Bouconne circuit 1_1]]></name>
    <trkseg>
      <trkpt lat="43.60269" lon="1.24473">
        <ele>192.2</ele>
        <time>2013-05-01T06:52:12.000Z</time>
      </trkpt>
      <trkpt lat="43.6027" lon="1.2447">
        <ele>192.2</ele>
        <time>2013-05-01T06:52:16.000Z</time>
      </trkpt>
      <trkpt lat="43.6027" lon="1.24452">
        <ele>192.2</ele>
        <time>2013-05-01T06:52:21.000Z</time>
      </trkpt>
      <trkpt lat="43.60269" lon="1.24432">
        <ele>192</ele>
        <time>2013-05-01T06:52:26.000Z</time>
      </trkpt>
      <trkpt lat="43.60271" lon="1.24409">
        <ele>192</ele>
        <time>2013-05-01T06:52:32.000Z</time>
      </trkpt>
      <trkpt lat="43.60268" lon="1.24382">
        <ele>192.2</ele>
        <time>2013-05-01T06:52:39.000Z</time>
      </trkpt>
      <trkpt lat="43.60265" lon="1.24353">
        <ele>192.6</ele>
        <time>2013-05-01T06:52:47.000Z</time>
      </trkpt>
      <trkpt lat="43.60258" lon="1.24329">
        <ele>192.8</ele>
        <time>2013-05-01T06:52:54.000Z</time>
      </trkpt>
      <trkpt lat="43.6025" lon="1.24319">
        <ele>193</ele>
        <time>2013-05-01T06:52:59.000Z</time>
      </trkpt>
      <trkpt lat="43.60233" lon="1.24304">
        <ele>193.6</ele>
        <time>2013-05-01T06:53:07.000Z</time>
      </trkpt>
      <trkpt lat="43.60219" lon="1.24291">
        <ele>193.8</ele>
        <time>2013-05-01T06:53:14.000Z</time>
      </trkpt>
      <trkpt lat="43.60203" lon="1.24275">
        <ele>194</ele>
        <time>2013-05-01T06:53:22.000Z</time>
      </trkpt>
      <trkpt lat="43.60189" lon="1.24262">
        <ele>194</ele>
        <time>2013-05-01T06:53:29.000Z</time>
      </trkpt>
      <trkpt lat="43.60181" lon="1.24254">
        <ele>194</ele>
        <time>2013-05-01T06:53:33.000Z</time>
      </trkpt>
      <trkpt lat="43.60166" lon="1.2424">
        <ele>194</ele>
        <time>2013-05-01T06:53:39.000Z</time>
      </trkpt>
      <trkpt lat="43.60154" lon="1.24227">
        <ele>194</ele>
        <time>2013-05-01T06:53:46.000Z</time>
      </trkpt>
      <trkpt lat="43.60141" lon="1.24216">
        <ele>194.2</ele>
        <time>2013-05-01T06:53:52.000Z</time>
      </trkpt>
      <trkpt lat="43.60139" lon="1.24213">
        <ele>194.2</ele>
        <time>2013-05-01T06:53:53.000Z</time>
      </trkpt>
      <trkpt lat="43.60143" lon="1.24201">
        <ele>194.2</ele>
        <time>2013-05-01T06:53:58.000Z</time>
      </trkpt>
      <trkpt lat="43.60145" lon="1.24199">
        <ele>194.2</ele>
        <time>2013-05-01T06:53:59.000Z</time>
      </trkpt>
      <trkpt lat="43.60158" lon="1.24183">
        <ele>194</ele>
        <time>2013-05-01T06:54:06.000Z</time>
      </trkpt>
      <trkpt lat="43.60166" lon="1.24173">
        <ele>194</ele>
        <time>2013-05-01T06:54:10.000Z</time>
      </trkpt>
      <trkpt lat="43.60178" lon="1.24158">
        <ele>193.4</ele>
        <time>2013-05-01T06:54:16.000Z</time>
      </trkpt>
      <trkpt lat="43.60186" lon="1.24148">
        <ele>192.8</ele>
        <time>2013-05-01T06:54:21.000Z</time>
      </trkpt>
      <trkpt lat="43.60197" lon="1.24134">
        <ele>191.8</ele>
        <time>2013-05-01T06:54:27.000Z</time>
      </trkpt>
      <trkpt lat="43.60208" lon="1.24123">
        <ele>191</ele>
        <time>2013-05-01T06:54:32.000Z</time>
      </trkpt>
      <trkpt lat="43.60209" lon="1.2412">
        <ele>190.8</ele>
        <time>2013-05-01T06:54:33.000Z</time>
      </trkpt>
      <trkpt lat="43.60213" lon="1.24109">
        <ele>190.2</ele>
        <time>2013-05-01T06:54:37.000Z</time>
      </trkpt>
      <trkpt lat="43.60214" lon="1.24107">
        <ele>190</ele>
        <time>2013-05-01T06:54:38.000Z</time>
      </trkpt>
      <trkpt lat="43.60219" lon="1.24102">
        <ele>189.6</ele>
        <time>2013-05-01T06:54:40.000Z</time>
      </trkpt>
      <trkpt lat="43.60225" lon="1.24087">
        <ele>188.8</ele>
        <time>2013-05-01T06:54:45.000Z</time>
      </trkpt>
      <trkpt lat="43.60228" lon="1.24082">
        <ele>188.4</ele>
        <time>2013-05-01T06:54:47.000Z</time>
      </trkpt>
      <trkpt lat="43.60238" lon="1.24062">
        <ele>187</ele>
        <time>2013-05-01T06:54:55.000Z</time>
      </trkpt>
      <trkpt lat="43.60246" lon="1.2405">
        <ele>186.4</ele>
        <time>2013-05-01T06:55:01.000Z</time>
      </trkpt>
      <trkpt lat="43.60247" lon="1.24048">
        <ele>186.2</ele>
        <time>2013-05-01T06:55:02.000Z</time>
      </trkpt>
      <trkpt lat="43.60257" lon="1.2404">
        <ele>185.4</ele>
        <time>2013-05-01T06:55:08.000Z</time>
      </trkpt>
      <trkpt lat="43.60266" lon="1.24032">
        <ele>184.6</ele>
        <time>2013-05-01T06:55:13.000Z</time>
      </trkpt>
      <trkpt lat="43.60268" lon="1.2403">
        <ele>184.4</ele>
        <time>2013-05-01T06:55:14.000Z</time>
      </trkpt>
      <trkpt lat="43.60282" lon="1.24017">
        <ele>183.4</ele>
        <time>2013-05-01T06:55:21.000Z</time>
      </trkpt>
      <trkpt lat="43.60292" lon="1.24004">
        <ele>182.6</ele>
        <time>2013-05-01T06:55:27.000Z</time>
      </trkpt>
      <trkpt lat="43.603" lon="1.23994">
        <ele>182.2</ele>
        <time>2013-05-01T06:55:32.000Z</time>
      </trkpt>
      <trkpt lat="43.6031" lon="1.23983">
        <ele>182.2</ele>
        <time>2013-05-01T06:55:38.000Z</time>
      </trkpt>
      <trkpt lat="43.60317" lon="1.23974">
        <ele>182.2</ele>
        <time>2013-05-01T06:55:44.000Z</time>
      </trkpt>
      <trkpt lat="43.6032" lon="1.23967">
        <ele>182.4</ele>
        <time>2013-05-01T06:56:02.000Z</time>
      </trkpt>
      <trkpt lat="43.60328" lon="1.23958">
        <ele>182.8</ele>
        <time>2013-05-01T06:56:07.000Z</time>
      </trkpt>
      <trkpt lat="43.60333" lon="1.23947">
        <ele>183.4</ele>
        <time>2013-05-01T06:56:11.000Z</time>
      </trkpt>
      <trkpt lat="43.60337" lon="1.23937">
        <ele>184.2</ele>
        <time>2013-05-01T06:56:15.000Z</time>
      </trkpt>
      <trkpt lat="43.60345" lon="1.23929">
        <ele>185.6</ele>
        <time>2013-05-01T06:56:20.000Z</time>
      </trkpt>
      <trkpt lat="43.60346" lon="1.23928">
        <ele>185.8</ele>
        <time>2013-05-01T06:56:21.000Z</time>
      </trkpt>
      <trkpt lat="43.6035" lon="1.23924">
        <ele>186.4</ele>
        <time>2013-05-01T06:56:26.000Z</time>
      </trkpt>
      <trkpt lat="43.60359" lon="1.23918">
        <ele>187.6</ele>
        <time>2013-05-01T06:56:31.000Z</time>
      </trkpt>
      <trkpt lat="43.60361" lon="1.23916">
        <ele>187.8</ele>
        <time>2013-05-01T06:56:32.000Z</time>
      </trkpt>
      <trkpt lat="43.60367" lon="1.23902">
        <ele>189</ele>
        <time>2013-05-01T06:56:38.000Z</time>
      </trkpt>
      <trkpt lat="43.60368" lon="1.239">
        <ele>189.2</ele>
        <time>2013-05-01T06:56:39.000Z</time>
      </trkpt>
      <trkpt lat="43.60367" lon="1.23887">
        <ele>189.6</ele>
        <time>2013-05-01T06:56:45.000Z</time>
      </trkpt>
      <trkpt lat="43.60363" lon="1.23874">
        <ele>189.8</ele>
        <time>2013-05-01T06:56:51.000Z</time>
      </trkpt>
      <trkpt lat="43.60362" lon="1.23864">
        <ele>190</ele>
        <time>2013-05-01T06:56:56.000Z</time>
      </trkpt>
      <trkpt lat="43.60366" lon="1.23851">
        <ele>190.8</ele>
        <time>2013-05-01T06:57:02.000Z</time>
      </trkpt>
      <trkpt lat="43.60375" lon="1.23837">
        <ele>191.8</ele>
        <time>2013-05-01T06:57:08.000Z</time>
      </trkpt>
      <trkpt lat="43.60383" lon="1.23823">
        <ele>192.4</ele>
        <time>2013-05-01T06:57:14.000Z</time>
      </trkpt>
      <trkpt lat="43.6039" lon="1.23804">
        <ele>192.8</ele>
        <time>2013-05-01T06:57:21.000Z</time>
      </trkpt>
      <trkpt lat="43.60395" lon="1.23787">
        <ele>193.2</ele>
        <time>2013-05-01T06:57:27.000Z</time>
      </trkpt>
      <trkpt lat="43.60397" lon="1.23778">
        <ele>193.2</ele>
        <time>2013-05-01T06:57:30.000Z</time>
      </trkpt>
      <trkpt lat="43.60395" lon="1.23763">
        <ele>193.2</ele>
        <time>2013-05-01T06:57:35.000Z</time>
      </trkpt>
      <trkpt lat="43.60396" lon="1.23753">
        <ele>193.4</ele>
        <time>2013-05-01T06:57:38.000Z</time>
      </trkpt>
      <trkpt lat="43.60396" lon="1.2375">
        <ele>193.4</ele>
        <time>2013-05-01T06:57:39.000Z</time>
      </trkpt>
      <trkpt lat="43.60389" lon="1.23736">
        <ele>193.6</ele>
        <time>2013-05-01T06:57:44.000Z</time>
      </trkpt>
      <trkpt lat="43.60377" lon="1.23728">
        <ele>193.4</ele>
        <time>2013-05-01T06:57:50.000Z</time>
      </trkpt>
      <trkpt lat="43.60361" lon="1.2372">
        <ele>193.2</ele>
        <time>2013-05-01T06:57:57.000Z</time>
      </trkpt>
      <trkpt lat="43.60344" lon="1.2371">
        <ele>192.8</ele>
        <time>2013-05-01T06:58:04.000Z</time>
      </trkpt>
      <trkpt lat="43.60336" lon="1.23706">
        <ele>192.6</ele>
        <time>2013-05-01T06:58:08.000Z</time>
      </trkpt>
      <trkpt lat="43.60331" lon="1.23695">
        <ele>192.4</ele>
        <time>2013-05-01T06:58:12.000Z</time>
      </trkpt>
      <trkpt lat="43.60335" lon="1.23672">
        <ele>193</ele>
        <time>2013-05-01T06:58:19.000Z</time>
      </trkpt>
      <trkpt lat="43.60341" lon="1.23658">
        <ele>193.2</ele>
        <time>2013-05-01T06:58:24.000Z</time>
      </trkpt>
      <trkpt lat="43.60346" lon="1.23641">
        <ele>193.4</ele>
        <time>2013-05-01T06:58:30.000Z</time>
      </trkpt>
      <trkpt lat="43.60347" lon="1.23637">
        <ele>193.4</ele>
        <time>2013-05-01T06:58:34.000Z</time>
      </trkpt>
      <trkpt lat="43.60357" lon="1.2362">
        <ele>193.8</ele>
        <time>2013-05-01T06:58:43.000Z</time>
      </trkpt>
      <trkpt lat="43.60361" lon="1.2362">
        <ele>194</ele>
        <time>2013-05-01T06:58:45.000Z</time>
      </trkpt>
      <trkpt lat="43.60375" lon="1.23626">
        <ele>195</ele>
        <time>2013-05-01T06:58:51.000Z</time>
      </trkpt>
      <trkpt lat="43.60391" lon="1.23635">
        <ele>195.8</ele>
        <time>2013-05-01T06:58:58.000Z</time>
      </trkpt>
      <trkpt lat="43.60405" lon="1.23642">
        <ele>196.6</ele>
        <time>2013-05-01T06:59:04.000Z</time>
      </trkpt>
      <trkpt lat="43.60409" lon="1.23645">
        <ele>196.8</ele>
        <time>2013-05-01T06:59:06.000Z</time>
      </trkpt>
      <trkpt lat="43.60419" lon="1.2365">
        <ele>197</ele>
        <time>2013-05-01T06:59:10.000Z</time>
      </trkpt>
      <trkpt lat="43.60432" lon="1.23657">
        <ele>196.6</ele>
        <time>2013-05-01T06:59:15.000Z</time>
      </trkpt>
      <trkpt lat="43.60444" lon="1.23669">
        <ele>196.2</ele>
        <time>2013-05-01T06:59:21.000Z</time>
      </trkpt>
      <trkpt lat="43.60445" lon="1.23684">
        <ele>195.6</ele>
        <time>2013-05-01T06:59:26.000Z</time>
      </trkpt>
      <trkpt lat="43.60447" lon="1.23707">
        <ele>195</ele>
        <time>2013-05-01T06:59:33.000Z</time>
      </trkpt>
      <trkpt lat="43.60453" lon="1.23722">
        <ele>194.4</ele>
        <time>2013-05-01T06:59:38.000Z</time>
      </trkpt>
      <trkpt lat="43.60462" lon="1.23734">
        <ele>193.8</ele>
        <time>2013-05-01T06:59:45.000Z</time>
      </trkpt>
      <trkpt lat="43.60472" lon="1.23742">
        <ele>193.4</ele>
        <time>2013-05-01T06:59:53.000Z</time>
      </trkpt>
      <trkpt lat="43.60482" lon="1.23738">
        <ele>193.4</ele>
        <time>2013-05-01T06:59:58.000Z</time>
      </trkpt>
      <trkpt lat="43.6049" lon="1.23728">
        <ele>193.6</ele>
        <time>2013-05-01T07:00:03.000Z</time>
      </trkpt>
      <trkpt lat="43.60502" lon="1.23712">
        <ele>193.8</ele>
        <time>2013-05-01T07:00:10.000Z</time>
      </trkpt>
      <trkpt lat="43.60512" lon="1.23696">
        <ele>194</ele>
        <time>2013-05-01T07:00:16.000Z</time>
      </trkpt>
      <trkpt lat="43.6052" lon="1.2368">
        <ele>194.2</ele>
        <time>2013-05-01T07:00:22.000Z</time>
      </trkpt>
      <trkpt lat="43.60527" lon="1.23667">
        <ele>194.2</ele>
        <time>2013-05-01T07:00:27.000Z</time>
      </trkpt>
      <trkpt lat="43.60534" lon="1.23649">
        <ele>194.4</ele>
        <time>2013-05-01T07:00:33.000Z</time>
      </trkpt>
      <trkpt lat="43.60541" lon="1.23624">
        <ele>194.6</ele>
        <time>2013-05-01T07:00:41.000Z</time>
      </trkpt>
      <trkpt lat="43.60549" lon="1.23603">
        <ele>195</ele>
        <time>2013-05-01T07:00:48.000Z</time>
      </trkpt>
      <trkpt lat="43.60556" lon="1.23579">
        <ele>195.4</ele>
        <time>2013-05-01T07:00:55.000Z</time>
      </trkpt>
      <trkpt lat="43.60561" lon="1.23564">
        <ele>195.4</ele>
        <time>2013-05-01T07:01:00.000Z</time>
      </trkpt>
      <trkpt lat="43.60566" lon="1.23547">
        <ele>195.6</ele>
        <time>2013-05-01T07:01:05.000Z</time>
      </trkpt>
      <trkpt lat="43.6057" lon="1.2353">
        <ele>195.8</ele>
        <time>2013-05-01T07:01:10.000Z</time>
      </trkpt>
      <trkpt lat="43.60571" lon="1.23503">
        <ele>196.2</ele>
        <time>2013-05-01T07:01:17.000Z</time>
      </trkpt>
      <trkpt lat="43.6057" lon="1.23477">
        <ele>197</ele>
        <time>2013-05-01T07:01:24.000Z</time>
      </trkpt>
      <trkpt lat="43.6057" lon="1.23456">
        <ele>197.6</ele>
        <time>2013-05-01T07:01:30.000Z</time>
      </trkpt>
      <trkpt lat="43.60573" lon="1.23439">
        <ele>198</ele>
        <time>2013-05-01T07:01:35.000Z</time>
      </trkpt>
      <trkpt lat="43.60577" lon="1.2342">
        <ele>198.8</ele>
        <time>2013-05-01T07:01:41.000Z</time>
      </trkpt>
      <trkpt lat="43.60585" lon="1.23411">
        <ele>198.6</ele>
        <time>2013-05-01T07:01:46.000Z</time>
      </trkpt>
      <trkpt lat="43.60592" lon="1.23406">
        <ele>198.2</ele>
        <time>2013-05-01T07:01:49.000Z</time>
      </trkpt>
      <trkpt lat="43.60607" lon="1.2341">
        <ele>197.8</ele>
        <time>2013-05-01T07:01:57.000Z</time>
      </trkpt>
      <trkpt lat="43.60607" lon="1.23411">
        <ele>197.8</ele>
        <time>2013-05-01T07:02:07.000Z</time>
      </trkpt>
      <trkpt lat="43.60619" lon="1.23415">
        <ele>197.6</ele>
        <time>2013-05-01T07:02:12.000Z</time>
      </trkpt>
      <trkpt lat="43.60631" lon="1.23417">
        <ele>197.2</ele>
        <time>2013-05-01T07:02:17.000Z</time>
      </trkpt>
      <trkpt lat="43.60645" lon="1.23419">
        <ele>196.6</ele>
        <time>2013-05-01T07:02:22.000Z</time>
      </trkpt>
      <trkpt lat="43.60657" lon="1.23421">
        <ele>196.2</ele>
        <time>2013-05-01T07:02:27.000Z</time>
      </trkpt>
      <trkpt lat="43.60675" lon="1.23422">
        <ele>195.6</ele>
        <time>2013-05-01T07:02:34.000Z</time>
      </trkpt>
      <trkpt lat="43.60693" lon="1.23421">
        <ele>195.2</ele>
        <time>2013-05-01T07:02:41.000Z</time>
      </trkpt>
      <trkpt lat="43.60711" lon="1.23415">
        <ele>194.8</ele>
        <time>2013-05-01T07:02:49.000Z</time>
      </trkpt>
      <trkpt lat="43.60726" lon="1.23409">
        <ele>194.2</ele>
        <time>2013-05-01T07:02:55.000Z</time>
      </trkpt>
      <trkpt lat="43.60728" lon="1.23409">
        <ele>194.2</ele>
        <time>2013-05-01T07:02:56.000Z</time>
      </trkpt>
      <trkpt lat="43.60738" lon="1.23417">
        <ele>194.2</ele>
        <time>2013-05-01T07:03:01.000Z</time>
      </trkpt>
      <trkpt lat="43.6074" lon="1.23418">
        <ele>194.2</ele>
        <time>2013-05-01T07:03:02.000Z</time>
      </trkpt>
      <trkpt lat="43.6076" lon="1.2342">
        <ele>193.8</ele>
        <time>2013-05-01T07:03:10.000Z</time>
      </trkpt>
      <trkpt lat="43.60772" lon="1.2342">
        <ele>193.4</ele>
        <time>2013-05-01T07:03:15.000Z</time>
      </trkpt>
      <trkpt lat="43.60788" lon="1.23423">
        <ele>193</ele>
        <time>2013-05-01T07:03:21.000Z</time>
      </trkpt>
      <trkpt lat="43.608" lon="1.23426">
        <ele>192.8</ele>
        <time>2013-05-01T07:03:26.000Z</time>
      </trkpt>
      <trkpt lat="43.60817" lon="1.23432">
        <ele>192.6</ele>
        <time>2013-05-01T07:03:33.000Z</time>
      </trkpt>
      <trkpt lat="43.60829" lon="1.23438">
        <ele>192.2</ele>
        <time>2013-05-01T07:03:39.000Z</time>
      </trkpt>
      <trkpt lat="43.60847" lon="1.23446">
        <ele>192.4</ele>
        <time>2013-05-01T07:03:47.000Z</time>
      </trkpt>
      <trkpt lat="43.60863" lon="1.23451">
        <ele>192.8</ele>
        <time>2013-05-01T07:03:54.000Z</time>
      </trkpt>
      <trkpt lat="43.60871" lon="1.2345">
        <ele>192.8</ele>
        <time>2013-05-01T07:03:58.000Z</time>
      </trkpt>
      <trkpt lat="43.60875" lon="1.23441">
        <ele>193</ele>
        <time>2013-05-01T07:04:02.000Z</time>
      </trkpt>
      <trkpt lat="43.60882" lon="1.23414">
        <ele>193</ele>
        <time>2013-05-01T07:04:10.000Z</time>
      </trkpt>
      <trkpt lat="43.60888" lon="1.23391">
        <ele>193.2</ele>
        <time>2013-05-01T07:04:17.000Z</time>
      </trkpt>
      <trkpt lat="43.60891" lon="1.23374">
        <ele>193.2</ele>
        <time>2013-05-01T07:04:22.000Z</time>
      </trkpt>
      <trkpt lat="43.60896" lon="1.23355">
        <ele>193.4</ele>
        <time>2013-05-01T07:04:28.000Z</time>
      </trkpt>
      <trkpt lat="43.60899" lon="1.23337">
        <ele>193.4</ele>
        <time>2013-05-01T07:04:33.000Z</time>
      </trkpt>
      <trkpt lat="43.60903" lon="1.23321">
        <ele>193.8</ele>
        <time>2013-05-01T07:04:38.000Z</time>
      </trkpt>
      <trkpt lat="43.60907" lon="1.23294">
        <ele>194.6</ele>
        <time>2013-05-01T07:04:46.000Z</time>
      </trkpt>
      <trkpt lat="43.6091" lon="1.23269">
        <ele>195.2</ele>
        <time>2013-05-01T07:04:53.000Z</time>
      </trkpt>
      <trkpt lat="43.60913" lon="1.23245">
        <ele>195.8</ele>
        <time>2013-05-01T07:05:00.000Z</time>
      </trkpt>
      <trkpt lat="43.60916" lon="1.23224">
        <ele>195.8</ele>
        <time>2013-05-01T07:05:06.000Z</time>
      </trkpt>
      <trkpt lat="43.60918" lon="1.23208">
        <ele>195.8</ele>
        <time>2013-05-01T07:05:11.000Z</time>
      </trkpt>
      <trkpt lat="43.6092" lon="1.23186">
        <ele>195.8</ele>
        <time>2013-05-01T07:05:17.000Z</time>
      </trkpt>
      <trkpt lat="43.60923" lon="1.23159">
        <ele>195.8</ele>
        <time>2013-05-01T07:05:25.000Z</time>
      </trkpt>
      <trkpt lat="43.60924" lon="1.23156">
        <ele>195.8</ele>
        <time>2013-05-01T07:05:26.000Z</time>
      </trkpt>
      <trkpt lat="43.60926" lon="1.23142">
        <ele>195.8</ele>
        <time>2013-05-01T07:05:30.000Z</time>
      </trkpt>
      <trkpt lat="43.6093" lon="1.23123">
        <ele>195.8</ele>
        <time>2013-05-01T07:05:36.000Z</time>
      </trkpt>
      <trkpt lat="43.60933" lon="1.23105">
        <ele>195.8</ele>
        <time>2013-05-01T07:05:41.000Z</time>
      </trkpt>
      <trkpt lat="43.60936" lon="1.23089">
        <ele>195.8</ele>
        <time>2013-05-01T07:05:46.000Z</time>
      </trkpt>
      <trkpt lat="43.60941" lon="1.23067">
        <ele>195.4</ele>
        <time>2013-05-01T07:05:53.000Z</time>
      </trkpt>
      <trkpt lat="43.60945" lon="1.23051">
        <ele>195</ele>
        <time>2013-05-01T07:05:58.000Z</time>
      </trkpt>
      <trkpt lat="43.60949" lon="1.23032">
        <ele>194.6</ele>
        <time>2013-05-01T07:06:04.000Z</time>
      </trkpt>
      <trkpt lat="43.6095" lon="1.23011">
        <ele>194</ele>
        <time>2013-05-01T07:06:10.000Z</time>
      </trkpt>
      <trkpt lat="43.60951" lon="1.22985">
        <ele>193.6</ele>
        <time>2013-05-01T07:06:17.000Z</time>
      </trkpt>
      <trkpt lat="43.60951" lon="1.22979">
        <ele>193.6</ele>
        <time>2013-05-01T07:06:21.000Z</time>
      </trkpt>
      <trkpt lat="43.6095" lon="1.22979">
        <ele>193.6</ele>
        <time>2013-05-01T07:06:33.000Z</time>
      </trkpt>
      <trkpt lat="43.6095" lon="1.22963">
        <ele>193.6</ele>
        <time>2013-05-01T07:06:38.000Z</time>
      </trkpt>
      <trkpt lat="43.6095" lon="1.22941">
        <ele>193.4</ele>
        <time>2013-05-01T07:06:44.000Z</time>
      </trkpt>
      <trkpt lat="43.6095" lon="1.22921">
        <ele>193.4</ele>
        <time>2013-05-01T07:06:50.000Z</time>
      </trkpt>
      <trkpt lat="43.60949" lon="1.22903">
        <ele>193.2</ele>
        <time>2013-05-01T07:06:55.000Z</time>
      </trkpt>
      <trkpt lat="43.60947" lon="1.22885">
        <ele>193.2</ele>
        <time>2013-05-01T07:07:00.000Z</time>
      </trkpt>
      <trkpt lat="43.60945" lon="1.22868">
        <ele>193.2</ele>
        <time>2013-05-01T07:07:05.000Z</time>
      </trkpt>
      <trkpt lat="43.60944" lon="1.22847">
        <ele>193.2</ele>
        <time>2013-05-01T07:07:11.000Z</time>
      </trkpt>
      <trkpt lat="43.60947" lon="1.22825">
        <ele>193.4</ele>
        <time>2013-05-01T07:07:17.000Z</time>
      </trkpt>
      <trkpt lat="43.60951" lon="1.22813">
        <ele>193.6</ele>
        <time>2013-05-01T07:07:21.000Z</time>
      </trkpt>
      <trkpt lat="43.6096" lon="1.22797">
        <ele>193.8</ele>
        <time>2013-05-01T07:07:27.000Z</time>
      </trkpt>
      <trkpt lat="43.60968" lon="1.22785">
        <ele>194.2</ele>
        <time>2013-05-01T07:07:32.000Z</time>
      </trkpt>
      <trkpt lat="43.60976" lon="1.22772">
        <ele>194.6</ele>
        <time>2013-05-01T07:07:37.000Z</time>
      </trkpt>
      <trkpt lat="43.60985" lon="1.22757">
        <ele>195.2</ele>
        <time>2013-05-01T07:07:43.000Z</time>
      </trkpt>
      <trkpt lat="43.60996" lon="1.22739">
        <ele>195.6</ele>
        <time>2013-05-01T07:07:50.000Z</time>
      </trkpt>
      <trkpt lat="43.61004" lon="1.22727">
        <ele>195.6</ele>
        <time>2013-05-01T07:07:55.000Z</time>
      </trkpt>
      <trkpt lat="43.61014" lon="1.22708">
        <ele>195.2</ele>
        <time>2013-05-01T07:08:02.000Z</time>
      </trkpt>
      <trkpt lat="43.6102" lon="1.22693">
        <ele>194.8</ele>
        <time>2013-05-01T07:08:07.000Z</time>
      </trkpt>
      <trkpt lat="43.61029" lon="1.22678">
        <ele>194.6</ele>
        <time>2013-05-01T07:08:13.000Z</time>
      </trkpt>
      <trkpt lat="43.61036" lon="1.22665">
        <ele>194.4</ele>
        <time>2013-05-01T07:08:18.000Z</time>
      </trkpt>
      <trkpt lat="43.61046" lon="1.22651">
        <ele>194</ele>
        <time>2013-05-01T07:08:24.000Z</time>
      </trkpt>
      <trkpt lat="43.61055" lon="1.22635">
        <ele>193.8</ele>
        <time>2013-05-01T07:08:30.000Z</time>
      </trkpt>
      <trkpt lat="43.61063" lon="1.22619">
        <ele>193.4</ele>
        <time>2013-05-01T07:08:36.000Z</time>
      </trkpt>
      <trkpt lat="43.61065" lon="1.22613">
        <ele>193.4</ele>
        <time>2013-05-01T07:08:40.000Z</time>
      </trkpt>
      <trkpt lat="43.61067" lon="1.22605">
        <ele>193.2</ele>
        <time>2013-05-01T07:08:56.000Z</time>
      </trkpt>
      <trkpt lat="43.61069" lon="1.22599">
        <ele>193.2</ele>
        <time>2013-05-01T07:09:00.000Z</time>
      </trkpt>
      <trkpt lat="43.61071" lon="1.22593">
        <ele>193</ele>
        <time>2013-05-01T07:09:09.000Z</time>
      </trkpt>
      <trkpt lat="43.61077" lon="1.22573">
        <ele>193</ele>
        <time>2013-05-01T07:09:15.000Z</time>
      </trkpt>
      <trkpt lat="43.61083" lon="1.22552">
        <ele>193</ele>
        <time>2013-05-01T07:09:21.000Z</time>
      </trkpt>
      <trkpt lat="43.61089" lon="1.22532">
        <ele>193</ele>
        <time>2013-05-01T07:09:27.000Z</time>
      </trkpt>
      <trkpt lat="43.61097" lon="1.22509">
        <ele>193</ele>
        <time>2013-05-01T07:09:34.000Z</time>
      </trkpt>
      <trkpt lat="43.61102" lon="1.22489">
        <ele>193.2</ele>
        <time>2013-05-01T07:09:40.000Z</time>
      </trkpt>
      <trkpt lat="43.6111" lon="1.22466">
        <ele>193.6</ele>
        <time>2013-05-01T07:09:47.000Z</time>
      </trkpt>
      <trkpt lat="43.61116" lon="1.22447">
        <ele>194</ele>
        <time>2013-05-01T07:09:53.000Z</time>
      </trkpt>
      <trkpt lat="43.61123" lon="1.22427">
        <ele>194.2</ele>
        <time>2013-05-01T07:09:59.000Z</time>
      </trkpt>
      <trkpt lat="43.61131" lon="1.22406">
        <ele>194.4</ele>
        <time>2013-05-01T07:10:06.000Z</time>
      </trkpt>
      <trkpt lat="43.61138" lon="1.22392">
        <ele>194.4</ele>
        <time>2013-05-01T07:10:11.000Z</time>
      </trkpt>
      <trkpt lat="43.61145" lon="1.22382">
        <ele>194.6</ele>
        <time>2013-05-01T07:10:15.000Z</time>
      </trkpt>
      <trkpt lat="43.61152" lon="1.22375">
        <ele>194.6</ele>
        <time>2013-05-01T07:10:19.000Z</time>
      </trkpt>
      <trkpt lat="43.61164" lon="1.22367">
        <ele>194.8</ele>
        <time>2013-05-01T07:10:24.000Z</time>
      </trkpt>
      <trkpt lat="43.61173" lon="1.2236">
        <ele>195</ele>
        <time>2013-05-01T07:10:28.000Z</time>
      </trkpt>
      <trkpt lat="43.61189" lon="1.22348">
        <ele>195</ele>
        <time>2013-05-01T07:10:35.000Z</time>
      </trkpt>
      <trkpt lat="43.61203" lon="1.22336">
        <ele>195</ele>
        <time>2013-05-01T07:10:42.000Z</time>
      </trkpt>
      <trkpt lat="43.61215" lon="1.22328">
        <ele>195</ele>
        <time>2013-05-01T07:10:48.000Z</time>
      </trkpt>
      <trkpt lat="43.61226" lon="1.22322">
        <ele>195</ele>
        <time>2013-05-01T07:10:53.000Z</time>
      </trkpt>
      <trkpt lat="43.61236" lon="1.22312">
        <ele>195</ele>
        <time>2013-05-01T07:10:59.000Z</time>
      </trkpt>
      <trkpt lat="43.61245" lon="1.22303">
        <ele>195.2</ele>
        <time>2013-05-01T07:11:04.000Z</time>
      </trkpt>
      <trkpt lat="43.61252" lon="1.22295">
        <ele>195.4</ele>
        <time>2013-05-01T07:11:08.000Z</time>
      </trkpt>
      <trkpt lat="43.61252" lon="1.22294">
        <ele>195.4</ele>
        <time>2013-05-01T07:11:09.000Z</time>
      </trkpt>
      <trkpt lat="43.61262" lon="1.22283">
        <ele>195.2</ele>
        <time>2013-05-01T07:11:15.000Z</time>
      </trkpt>
      <trkpt lat="43.61271" lon="1.22275">
        <ele>195</ele>
        <time>2013-05-01T07:11:19.000Z</time>
      </trkpt>
      <trkpt lat="43.61285" lon="1.22262">
        <ele>194.6</ele>
        <time>2013-05-01T07:11:26.000Z</time>
      </trkpt>
      <trkpt lat="43.61299" lon="1.22247">
        <ele>194.2</ele>
        <time>2013-05-01T07:11:33.000Z</time>
      </trkpt>
      <trkpt lat="43.61311" lon="1.22235">
        <ele>194</ele>
        <time>2013-05-01T07:11:39.000Z</time>
      </trkpt>
      <trkpt lat="43.61313" lon="1.22232">
        <ele>194</ele>
        <time>2013-05-01T07:11:40.000Z</time>
      </trkpt>
      <trkpt lat="43.61319" lon="1.22224">
        <ele>194</ele>
        <time>2013-05-01T07:11:45.000Z</time>
      </trkpt>
      <trkpt lat="43.61321" lon="1.2222">
        <ele>194</ele>
        <time>2013-05-01T07:11:47.000Z</time>
      </trkpt>
      <trkpt lat="43.61325" lon="1.22208">
        <ele>194.2</ele>
        <time>2013-05-01T07:11:53.000Z</time>
      </trkpt>
      <trkpt lat="43.61328" lon="1.22193">
        <ele>194.4</ele>
        <time>2013-05-01T07:11:58.000Z</time>
      </trkpt>
      <trkpt lat="43.6133" lon="1.22187">
        <ele>194.4</ele>
        <time>2013-05-01T07:12:00.000Z</time>
      </trkpt>
      <trkpt lat="43.61336" lon="1.22166">
        <ele>195</ele>
        <time>2013-05-01T07:12:07.000Z</time>
      </trkpt>
      <trkpt lat="43.61338" lon="1.22156">
        <ele>195</ele>
        <time>2013-05-01T07:12:10.000Z</time>
      </trkpt>
      <trkpt lat="43.6134" lon="1.22143">
        <ele>195.2</ele>
        <time>2013-05-01T07:12:14.000Z</time>
      </trkpt>
      <trkpt lat="43.61341" lon="1.22136">
        <ele>195.2</ele>
        <time>2013-05-01T07:12:16.000Z</time>
      </trkpt>
      <trkpt lat="43.61342" lon="1.22124">
        <ele>195.4</ele>
        <time>2013-05-01T07:12:20.000Z</time>
      </trkpt>
      <trkpt lat="43.61348" lon="1.22106">
        <ele>195.6</ele>
        <time>2013-05-01T07:12:26.000Z</time>
      </trkpt>
      <trkpt lat="43.61352" lon="1.22087">
        <ele>195.6</ele>
        <time>2013-05-01T07:12:32.000Z</time>
      </trkpt>
      <trkpt lat="43.61355" lon="1.2207">
        <ele>195.6</ele>
        <time>2013-05-01T07:12:37.000Z</time>
      </trkpt>
      <trkpt lat="43.61359" lon="1.22047">
        <ele>195.2</ele>
        <time>2013-05-01T07:12:44.000Z</time>
      </trkpt>
      <trkpt lat="43.61363" lon="1.22023">
        <ele>195</ele>
        <time>2013-05-01T07:12:51.000Z</time>
      </trkpt>
      <trkpt lat="43.61366" lon="1.22003">
        <ele>195</ele>
        <time>2013-05-01T07:12:57.000Z</time>
      </trkpt>
      <trkpt lat="43.6137" lon="1.21984">
        <ele>195.2</ele>
        <time>2013-05-01T07:13:03.000Z</time>
      </trkpt>
      <trkpt lat="43.61372" lon="1.21968">
        <ele>195.4</ele>
        <time>2013-05-01T07:13:08.000Z</time>
      </trkpt>
      <trkpt lat="43.61376" lon="1.2195">
        <ele>195.8</ele>
        <time>2013-05-01T07:13:14.000Z</time>
      </trkpt>
      <trkpt lat="43.6138" lon="1.21933">
        <ele>196.2</ele>
        <time>2013-05-01T07:13:20.000Z</time>
      </trkpt>
      <trkpt lat="43.61382" lon="1.21924">
        <ele>196.4</ele>
        <time>2013-05-01T07:13:23.000Z</time>
      </trkpt>
      <trkpt lat="43.61381" lon="1.21918">
        <ele>196.4</ele>
        <time>2013-05-01T07:13:27.000Z</time>
      </trkpt>
      <trkpt lat="43.6138" lon="1.21917">
        <ele>196.4</ele>
        <time>2013-05-01T07:13:29.000Z</time>
      </trkpt>
      <trkpt lat="43.61379" lon="1.2191">
        <ele>196.6</ele>
        <time>2013-05-01T07:13:35.000Z</time>
      </trkpt>
      <trkpt lat="43.61379" lon="1.21908">
        <ele>196.6</ele>
        <time>2013-05-01T07:13:36.000Z</time>
      </trkpt>
      <trkpt lat="43.61383" lon="1.21889">
        <ele>197.2</ele>
        <time>2013-05-01T07:13:42.000Z</time>
      </trkpt>
      <trkpt lat="43.61386" lon="1.21875">
        <ele>197.6</ele>
        <time>2013-05-01T07:13:47.000Z</time>
      </trkpt>
      <trkpt lat="43.61389" lon="1.21856">
        <ele>198.2</ele>
        <time>2013-05-01T07:13:53.000Z</time>
      </trkpt>
      <trkpt lat="43.61392" lon="1.2184">
        <ele>198.8</ele>
        <time>2013-05-01T07:13:58.000Z</time>
      </trkpt>
      <trkpt lat="43.61394" lon="1.21824">
        <ele>199</ele>
        <time>2013-05-01T07:14:03.000Z</time>
      </trkpt>
      <trkpt lat="43.61398" lon="1.21805">
        <ele>199</ele>
        <time>2013-05-01T07:14:09.000Z</time>
      </trkpt>
      <trkpt lat="43.614" lon="1.21788">
        <ele>198.8</ele>
        <time>2013-05-01T07:14:15.000Z</time>
      </trkpt>
      <trkpt lat="43.61403" lon="1.21768">
        <ele>198.8</ele>
        <time>2013-05-01T07:14:21.000Z</time>
      </trkpt>
      <trkpt lat="43.61403" lon="1.21765">
        <ele>198.8</ele>
        <time>2013-05-01T07:14:22.000Z</time>
      </trkpt>
      <trkpt lat="43.61401" lon="1.21746">
        <ele>198.6</ele>
        <time>2013-05-01T07:14:28.000Z</time>
      </trkpt>
      <trkpt lat="43.614" lon="1.21743">
        <ele>198.4</ele>
        <time>2013-05-01T07:14:29.000Z</time>
      </trkpt>
      <trkpt lat="43.61392" lon="1.2172">
        <ele>198.2</ele>
        <time>2013-05-01T07:14:36.000Z</time>
      </trkpt>
      <trkpt lat="43.61387" lon="1.21702">
        <ele>198.2</ele>
        <time>2013-05-01T07:14:42.000Z</time>
      </trkpt>
      <trkpt lat="43.61386" lon="1.21685">
        <ele>198.2</ele>
        <time>2013-05-01T07:14:47.000Z</time>
      </trkpt>
      <trkpt lat="43.61394" lon="1.2167">
        <ele>198.2</ele>
        <time>2013-05-01T07:14:52.000Z</time>
      </trkpt>
      <trkpt lat="43.61401" lon="1.21655">
        <ele>198</ele>
        <time>2013-05-01T07:14:57.000Z</time>
      </trkpt>
      <trkpt lat="43.61411" lon="1.21638">
        <ele>198</ele>
        <time>2013-05-01T07:15:03.000Z</time>
      </trkpt>
      <trkpt lat="43.61421" lon="1.21622">
        <ele>198</ele>
        <time>2013-05-01T07:15:09.000Z</time>
      </trkpt>
      <trkpt lat="43.6143" lon="1.21606">
        <ele>198.2</ele>
        <time>2013-05-01T07:15:15.000Z</time>
      </trkpt>
      <trkpt lat="43.6144" lon="1.2159">
        <ele>198.4</ele>
        <time>2013-05-01T07:15:21.000Z</time>
      </trkpt>
      <trkpt lat="43.61449" lon="1.21574">
        <ele>198.8</ele>
        <time>2013-05-01T07:15:27.000Z</time>
      </trkpt>
      <trkpt lat="43.6146" lon="1.21557">
        <ele>199</ele>
        <time>2013-05-01T07:15:34.000Z</time>
      </trkpt>
      <trkpt lat="43.61468" lon="1.21539">
        <ele>199.4</ele>
        <time>2013-05-01T07:15:40.000Z</time>
      </trkpt>
      <trkpt lat="43.61477" lon="1.2152">
        <ele>199.6</ele>
        <time>2013-05-01T07:15:47.000Z</time>
      </trkpt>
      <trkpt lat="43.61486" lon="1.21506">
        <ele>199.8</ele>
        <time>2013-05-01T07:15:53.000Z</time>
      </trkpt>
      <trkpt lat="43.61497" lon="1.21488">
        <ele>200.2</ele>
        <time>2013-05-01T07:16:00.000Z</time>
      </trkpt>
      <trkpt lat="43.61506" lon="1.21473">
        <ele>200.8</ele>
        <time>2013-05-01T07:16:06.000Z</time>
      </trkpt>
      <trkpt lat="43.61514" lon="1.21462">
        <ele>201.2</ele>
        <time>2013-05-01T07:16:11.000Z</time>
      </trkpt>
      <trkpt lat="43.61522" lon="1.2145">
        <ele>201.6</ele>
        <time>2013-05-01T07:16:16.000Z</time>
      </trkpt>
      <trkpt lat="43.61531" lon="1.21435">
        <ele>202.2</ele>
        <time>2013-05-01T07:16:22.000Z</time>
      </trkpt>
      <trkpt lat="43.61541" lon="1.21419">
        <ele>202.8</ele>
        <time>2013-05-01T07:16:29.000Z</time>
      </trkpt>
      <trkpt lat="43.6155" lon="1.21404">
        <ele>203</ele>
        <time>2013-05-01T07:16:35.000Z</time>
      </trkpt>
      <trkpt lat="43.6156" lon="1.21388">
        <ele>203.4</ele>
        <time>2013-05-01T07:16:42.000Z</time>
      </trkpt>
      <trkpt lat="43.6157" lon="1.21373">
        <ele>203.6</ele>
        <time>2013-05-01T07:16:48.000Z</time>
      </trkpt>
      <trkpt lat="43.6158" lon="1.21356">
        <ele>204.2</ele>
        <time>2013-05-01T07:16:55.000Z</time>
      </trkpt>
      <trkpt lat="43.6159" lon="1.2134">
        <ele>205.4</ele>
        <time>2013-05-01T07:17:01.000Z</time>
      </trkpt>
      <trkpt lat="43.61601" lon="1.21325">
        <ele>206.8</ele>
        <time>2013-05-01T07:17:07.000Z</time>
      </trkpt>
      <trkpt lat="43.61608" lon="1.21313">
        <ele>207.8</ele>
        <time>2013-05-01T07:17:13.000Z</time>
      </trkpt>
      <trkpt lat="43.61613" lon="1.21305">
        <ele>208.4</ele>
        <time>2013-05-01T07:17:21.000Z</time>
      </trkpt>
      <trkpt lat="43.61619" lon="1.21294">
        <ele>209.2</ele>
        <time>2013-05-01T07:17:28.000Z</time>
      </trkpt>
      <trkpt lat="43.61634" lon="1.21276">
        <ele>210.6</ele>
        <time>2013-05-01T07:17:36.000Z</time>
      </trkpt>
      <trkpt lat="43.61643" lon="1.21262">
        <ele>211.4</ele>
        <time>2013-05-01T07:17:43.000Z</time>
      </trkpt>
      <trkpt lat="43.61645" lon="1.21249">
        <ele>211.6</ele>
        <time>2013-05-01T07:17:48.000Z</time>
      </trkpt>
      <trkpt lat="43.61652" lon="1.21234">
        <ele>212</ele>
        <time>2013-05-01T07:17:53.000Z</time>
      </trkpt>
      <trkpt lat="43.6166" lon="1.21214">
        <ele>212.6</ele>
        <time>2013-05-01T07:18:00.000Z</time>
      </trkpt>
      <trkpt lat="43.61663" lon="1.2121">
        <ele>212.8</ele>
        <time>2013-05-01T07:18:02.000Z</time>
      </trkpt>
      <trkpt lat="43.6167" lon="1.2119">
        <ele>213</ele>
        <time>2013-05-01T07:18:10.000Z</time>
      </trkpt>
      <trkpt lat="43.61675" lon="1.21179">
        <ele>213</ele>
        <time>2013-05-01T07:18:16.000Z</time>
      </trkpt>
      <trkpt lat="43.61675" lon="1.21177">
        <ele>213</ele>
        <time>2013-05-01T07:18:17.000Z</time>
      </trkpt>
      <trkpt lat="43.61675" lon="1.21172">
        <ele>213</ele>
        <time>2013-05-01T07:18:23.000Z</time>
      </trkpt>
      <trkpt lat="43.61677" lon="1.2116">
        <ele>213</ele>
        <time>2013-05-01T07:18:50.000Z</time>
      </trkpt>
      <trkpt lat="43.61681" lon="1.21154">
        <ele>213.2</ele>
        <time>2013-05-01T07:18:57.000Z</time>
      </trkpt>
      <trkpt lat="43.61682" lon="1.21151">
        <ele>213.2</ele>
        <time>2013-05-01T07:18:59.000Z</time>
      </trkpt>
      <trkpt lat="43.61689" lon="1.21138">
        <ele>213.4</ele>
        <time>2013-05-01T07:19:04.000Z</time>
      </trkpt>
      <trkpt lat="43.61692" lon="1.21131">
        <ele>213.4</ele>
        <time>2013-05-01T07:19:06.000Z</time>
      </trkpt>
      <trkpt lat="43.61696" lon="1.21123">
        <ele>213.4</ele>
        <time>2013-05-01T07:19:09.000Z</time>
      </trkpt>
      <trkpt lat="43.61702" lon="1.21104">
        <ele>213.4</ele>
        <time>2013-05-01T07:19:15.000Z</time>
      </trkpt>
      <trkpt lat="43.61709" lon="1.21089">
        <ele>213.4</ele>
        <time>2013-05-01T07:19:20.000Z</time>
      </trkpt>
      <trkpt lat="43.61714" lon="1.21077">
        <ele>213.8</ele>
        <time>2013-05-01T07:19:24.000Z</time>
      </trkpt>
      <trkpt lat="43.61717" lon="1.21071">
        <ele>214</ele>
        <time>2013-05-01T07:19:26.000Z</time>
      </trkpt>
      <trkpt lat="43.61724" lon="1.21056">
        <ele>215</ele>
        <time>2013-05-01T07:19:31.000Z</time>
      </trkpt>
      <trkpt lat="43.61731" lon="1.21038">
        <ele>216.2</ele>
        <time>2013-05-01T07:19:37.000Z</time>
      </trkpt>
      <trkpt lat="43.61738" lon="1.21024">
        <ele>217.2</ele>
        <time>2013-05-01T07:19:42.000Z</time>
      </trkpt>
      <trkpt lat="43.6175" lon="1.20997">
        <ele>219</ele>
        <time>2013-05-01T07:19:52.000Z</time>
      </trkpt>
      <trkpt lat="43.61755" lon="1.20987">
        <ele>219.2</ele>
        <time>2013-05-01T07:19:56.000Z</time>
      </trkpt>
      <trkpt lat="43.61762" lon="1.20972">
        <ele>219.6</ele>
        <time>2013-05-01T07:20:01.000Z</time>
      </trkpt>
      <trkpt lat="43.61764" lon="1.20966">
        <ele>219.8</ele>
        <time>2013-05-01T07:20:03.000Z</time>
      </trkpt>
      <trkpt lat="43.6177" lon="1.20951">
        <ele>220</ele>
        <time>2013-05-01T07:20:08.000Z</time>
      </trkpt>
      <trkpt lat="43.61771" lon="1.20948">
        <ele>220.2</ele>
        <time>2013-05-01T07:20:09.000Z</time>
      </trkpt>
      <trkpt lat="43.61777" lon="1.20937">
        <ele>220.4</ele>
        <time>2013-05-01T07:20:13.000Z</time>
      </trkpt>
      <trkpt lat="43.61782" lon="1.20923">
        <ele>220.8</ele>
        <time>2013-05-01T07:20:18.000Z</time>
      </trkpt>
      <trkpt lat="43.61785" lon="1.20917">
        <ele>220.8</ele>
        <time>2013-05-01T07:20:20.000Z</time>
      </trkpt>
      <trkpt lat="43.61792" lon="1.20899">
        <ele>221</ele>
        <time>2013-05-01T07:20:26.000Z</time>
      </trkpt>
      <trkpt lat="43.61798" lon="1.20885">
        <ele>221</ele>
        <time>2013-05-01T07:20:31.000Z</time>
      </trkpt>
      <trkpt lat="43.61801" lon="1.2088">
        <ele>220.8</ele>
        <time>2013-05-01T07:20:33.000Z</time>
      </trkpt>
      <trkpt lat="43.61807" lon="1.20862">
        <ele>220.6</ele>
        <time>2013-05-01T07:20:39.000Z</time>
      </trkpt>
      <trkpt lat="43.61812" lon="1.20848">
        <ele>220.4</ele>
        <time>2013-05-01T07:20:44.000Z</time>
      </trkpt>
      <trkpt lat="43.61813" lon="1.20846">
        <ele>220.2</ele>
        <time>2013-05-01T07:20:45.000Z</time>
      </trkpt>
      <trkpt lat="43.61823" lon="1.20832">
        <ele>219.6</ele>
        <time>2013-05-01T07:20:51.000Z</time>
      </trkpt>
      <trkpt lat="43.61826" lon="1.20827">
        <ele>219.4</ele>
        <time>2013-05-01T07:20:53.000Z</time>
      </trkpt>
      <trkpt lat="43.61832" lon="1.20808">
        <ele>219.2</ele>
        <time>2013-05-01T07:20:59.000Z</time>
      </trkpt>
      <trkpt lat="43.61837" lon="1.208">
        <ele>219.6</ele>
        <time>2013-05-01T07:21:02.000Z</time>
      </trkpt>
      <trkpt lat="43.61839" lon="1.20798">
        <ele>219.6</ele>
        <time>2013-05-01T07:21:03.000Z</time>
      </trkpt>
      <trkpt lat="43.61847" lon="1.20777">
        <ele>220.2</ele>
        <time>2013-05-01T07:21:10.000Z</time>
      </trkpt>
      <trkpt lat="43.61852" lon="1.20766">
        <ele>220.4</ele>
        <time>2013-05-01T07:21:15.000Z</time>
      </trkpt>
      <trkpt lat="43.61852" lon="1.20762">
        <ele>220.4</ele>
        <time>2013-05-01T07:21:16.000Z</time>
      </trkpt>
      <trkpt lat="43.61859" lon="1.2075">
        <ele>220.6</ele>
        <time>2013-05-01T07:21:21.000Z</time>
      </trkpt>
      <trkpt lat="43.61866" lon="1.20739">
        <ele>220.8</ele>
        <time>2013-05-01T07:21:26.000Z</time>
      </trkpt>
      <trkpt lat="43.61872" lon="1.20728">
        <ele>220.8</ele>
        <time>2013-05-01T07:21:30.000Z</time>
      </trkpt>
      <trkpt lat="43.61876" lon="1.2072">
        <ele>221</ele>
        <time>2013-05-01T07:21:33.000Z</time>
      </trkpt>
      <trkpt lat="43.61878" lon="1.20717">
        <ele>221</ele>
        <time>2013-05-01T07:21:34.000Z</time>
      </trkpt>
      <trkpt lat="43.61891" lon="1.20693">
        <ele>221</ele>
        <time>2013-05-01T07:21:44.000Z</time>
      </trkpt>
      <trkpt lat="43.619" lon="1.20662">
        <ele>221</ele>
        <time>2013-05-01T07:21:53.000Z</time>
      </trkpt>
      <trkpt lat="43.61901" lon="1.2066">
        <ele>221.2</ele>
        <time>2013-05-01T07:21:54.000Z</time>
      </trkpt>
      <trkpt lat="43.61902" lon="1.20658">
        <ele>221.2</ele>
        <time>2013-05-01T07:21:55.000Z</time>
      </trkpt>
      <trkpt lat="43.61906" lon="1.20645">
        <ele>221.6</ele>
        <time>2013-05-01T07:21:59.000Z</time>
      </trkpt>
      <trkpt lat="43.61907" lon="1.20643">
        <ele>221.6</ele>
        <time>2013-05-01T07:22:00.000Z</time>
      </trkpt>
      <trkpt lat="43.61915" lon="1.20643">
        <ele>221.6</ele>
        <time>2013-05-01T07:22:04.000Z</time>
      </trkpt>
      <trkpt lat="43.61918" lon="1.20646">
        <ele>221.4</ele>
        <time>2013-05-01T07:22:06.000Z</time>
      </trkpt>
      <trkpt lat="43.61927" lon="1.20653">
        <ele>222</ele>
        <time>2013-05-01T07:22:11.000Z</time>
      </trkpt>
      <trkpt lat="43.61936" lon="1.20659">
        <ele>222.6</ele>
        <time>2013-05-01T07:22:16.000Z</time>
      </trkpt>
      <trkpt lat="43.61947" lon="1.20667">
        <ele>223.4</ele>
        <time>2013-05-01T07:22:21.000Z</time>
      </trkpt>
      <trkpt lat="43.61958" lon="1.20675">
        <ele>224.6</ele>
        <time>2013-05-01T07:22:26.000Z</time>
      </trkpt>
      <trkpt lat="43.6196" lon="1.20676">
        <ele>224.8</ele>
        <time>2013-05-01T07:22:27.000Z</time>
      </trkpt>
      <trkpt lat="43.61973" lon="1.20686">
        <ele>226.2</ele>
        <time>2013-05-01T07:22:33.000Z</time>
      </trkpt>
      <trkpt lat="43.61984" lon="1.20696">
        <ele>227.4</ele>
        <time>2013-05-01T07:22:39.000Z</time>
      </trkpt>
      <trkpt lat="43.61988" lon="1.20699">
        <ele>228</ele>
        <time>2013-05-01T07:22:42.000Z</time>
      </trkpt>
      <trkpt lat="43.61995" lon="1.20706">
        <ele>228.8</ele>
        <time>2013-05-01T07:22:48.000Z</time>
      </trkpt>
      <trkpt lat="43.61997" lon="1.20707">
        <ele>229</ele>
        <time>2013-05-01T07:22:49.000Z</time>
      </trkpt>
      <trkpt lat="43.62003" lon="1.20712">
        <ele>229.8</ele>
        <time>2013-05-01T07:22:53.000Z</time>
      </trkpt>
      <trkpt lat="43.62012" lon="1.2072">
        <ele>230.8</ele>
        <time>2013-05-01T07:23:00.000Z</time>
      </trkpt>
      <trkpt lat="43.62015" lon="1.20722">
        <ele>231</ele>
        <time>2013-05-01T07:23:02.000Z</time>
      </trkpt>
      <trkpt lat="43.62023" lon="1.20729">
        <ele>232</ele>
        <time>2013-05-01T07:23:08.000Z</time>
      </trkpt>
      <trkpt lat="43.62031" lon="1.20735">
        <ele>233</ele>
        <time>2013-05-01T07:23:14.000Z</time>
      </trkpt>
      <trkpt lat="43.62033" lon="1.20736">
        <ele>233.4</ele>
        <time>2013-05-01T07:23:16.000Z</time>
      </trkpt>
      <trkpt lat="43.6204" lon="1.20743">
        <ele>234.4</ele>
        <time>2013-05-01T07:23:23.000Z</time>
      </trkpt>
      <trkpt lat="43.62046" lon="1.20748">
        <ele>235.2</ele>
        <time>2013-05-01T07:23:28.000Z</time>
      </trkpt>
      <trkpt lat="43.62053" lon="1.20754">
        <ele>236.2</ele>
        <time>2013-05-01T07:23:34.000Z</time>
      </trkpt>
      <trkpt lat="43.62057" lon="1.20757">
        <ele>236.8</ele>
        <time>2013-05-01T07:23:38.000Z</time>
      </trkpt>
      <trkpt lat="43.62062" lon="1.20763">
        <ele>237.6</ele>
        <time>2013-05-01T07:23:43.000Z</time>
      </trkpt>
      <trkpt lat="43.62072" lon="1.20772">
        <ele>239.2</ele>
        <time>2013-05-01T07:23:50.000Z</time>
      </trkpt>
      <trkpt lat="43.62074" lon="1.20774">
        <ele>239.4</ele>
        <time>2013-05-01T07:23:51.000Z</time>
      </trkpt>
      <trkpt lat="43.62086" lon="1.20783">
        <ele>241</ele>
        <time>2013-05-01T07:23:57.000Z</time>
      </trkpt>
      <trkpt lat="43.62087" lon="1.20784">
        <ele>241</ele>
        <time>2013-05-01T07:23:58.000Z</time>
      </trkpt>
      <trkpt lat="43.62088" lon="1.20786">
        <ele>241.2</ele>
        <time>2013-05-01T07:24:04.000Z</time>
      </trkpt>
      <trkpt lat="43.6209" lon="1.20787">
        <ele>241.2</ele>
        <time>2013-05-01T07:24:10.000Z</time>
      </trkpt>
      <trkpt lat="43.62097" lon="1.20794">
        <ele>241.8</ele>
        <time>2013-05-01T07:24:14.000Z</time>
      </trkpt>
      <trkpt lat="43.62108" lon="1.2079">
        <ele>241.8</ele>
        <time>2013-05-01T07:24:19.000Z</time>
      </trkpt>
      <trkpt lat="43.62111" lon="1.20789">
        <ele>241.8</ele>
        <time>2013-05-01T07:24:20.000Z</time>
      </trkpt>
      <trkpt lat="43.62118" lon="1.20785">
        <ele>241.8</ele>
        <time>2013-05-01T07:24:23.000Z</time>
      </trkpt>
      <trkpt lat="43.62128" lon="1.20781">
        <ele>242</ele>
        <time>2013-05-01T07:24:27.000Z</time>
      </trkpt>
      <trkpt lat="43.62141" lon="1.2077">
        <ele>242</ele>
        <time>2013-05-01T07:24:33.000Z</time>
      </trkpt>
      <trkpt lat="43.6215" lon="1.20758">
        <ele>242.2</ele>
        <time>2013-05-01T07:24:38.000Z</time>
      </trkpt>
      <trkpt lat="43.62152" lon="1.20756">
        <ele>242.2</ele>
        <time>2013-05-01T07:24:39.000Z</time>
      </trkpt>
      <trkpt lat="43.62161" lon="1.2075">
        <ele>242.6</ele>
        <time>2013-05-01T07:24:43.000Z</time>
      </trkpt>
      <trkpt lat="43.62185" lon="1.2073">
        <ele>242</ele>
        <time>2013-05-01T07:24:54.000Z</time>
      </trkpt>
      <trkpt lat="43.62195" lon="1.20719">
        <ele>241.6</ele>
        <time>2013-05-01T07:24:59.000Z</time>
      </trkpt>
      <trkpt lat="43.62207" lon="1.20703">
        <ele>241</ele>
        <time>2013-05-01T07:25:05.000Z</time>
      </trkpt>
      <trkpt lat="43.62214" lon="1.20692">
        <ele>240.6</ele>
        <time>2013-05-01T07:25:09.000Z</time>
      </trkpt>
      <trkpt lat="43.62218" lon="1.20688">
        <ele>240.4</ele>
        <time>2013-05-01T07:25:11.000Z</time>
      </trkpt>
      <trkpt lat="43.62229" lon="1.20679">
        <ele>240.2</ele>
        <time>2013-05-01T07:25:16.000Z</time>
      </trkpt>
      <trkpt lat="43.62233" lon="1.20676">
        <ele>240</ele>
        <time>2013-05-01T07:25:18.000Z</time>
      </trkpt>
      <trkpt lat="43.62246" lon="1.20666">
        <ele>239.8</ele>
        <time>2013-05-01T07:25:24.000Z</time>
      </trkpt>
      <trkpt lat="43.62249" lon="1.20665">
        <ele>239.8</ele>
        <time>2013-05-01T07:25:25.000Z</time>
      </trkpt>
      <trkpt lat="43.62261" lon="1.20662">
        <ele>240</ele>
        <time>2013-05-01T07:25:31.000Z</time>
      </trkpt>
      <trkpt lat="43.62271" lon="1.20663">
        <ele>240.4</ele>
        <time>2013-05-01T07:25:35.000Z</time>
      </trkpt>
      <trkpt lat="43.6228" lon="1.20662">
        <ele>240.6</ele>
        <time>2013-05-01T07:25:39.000Z</time>
      </trkpt>
      <trkpt lat="43.62295" lon="1.2066">
        <ele>241</ele>
        <time>2013-05-01T07:25:45.000Z</time>
      </trkpt>
      <trkpt lat="43.62306" lon="1.20655">
        <ele>241.4</ele>
        <time>2013-05-01T07:25:50.000Z</time>
      </trkpt>
      <trkpt lat="43.62311" lon="1.20653">
        <ele>241.4</ele>
        <time>2013-05-01T07:25:52.000Z</time>
      </trkpt>
      <trkpt lat="43.62323" lon="1.20664">
        <ele>241.6</ele>
        <time>2013-05-01T07:25:58.000Z</time>
      </trkpt>
      <trkpt lat="43.62325" lon="1.20666">
        <ele>241.8</ele>
        <time>2013-05-01T07:25:59.000Z</time>
      </trkpt>
      <trkpt lat="43.62336" lon="1.20673">
        <ele>241.8</ele>
        <time>2013-05-01T07:26:03.000Z</time>
      </trkpt>
      <trkpt lat="43.62345" lon="1.2068">
        <ele>241.8</ele>
        <time>2013-05-01T07:26:07.000Z</time>
      </trkpt>
      <trkpt lat="43.62358" lon="1.2069">
        <ele>241.6</ele>
        <time>2013-05-01T07:26:12.000Z</time>
      </trkpt>
      <trkpt lat="43.62369" lon="1.20698">
        <ele>241.4</ele>
        <time>2013-05-01T07:26:17.000Z</time>
      </trkpt>
      <trkpt lat="43.62374" lon="1.20702">
        <ele>241.2</ele>
        <time>2013-05-01T07:26:19.000Z</time>
      </trkpt>
      <trkpt lat="43.62384" lon="1.2071">
        <ele>241</ele>
        <time>2013-05-01T07:26:23.000Z</time>
      </trkpt>
      <trkpt lat="43.62395" lon="1.20717">
        <ele>240.8</ele>
        <time>2013-05-01T07:26:27.000Z</time>
      </trkpt>
      <trkpt lat="43.62408" lon="1.20726">
        <ele>240.6</ele>
        <time>2013-05-01T07:26:32.000Z</time>
      </trkpt>
      <trkpt lat="43.6242" lon="1.20735">
        <ele>240.4</ele>
        <time>2013-05-01T07:26:37.000Z</time>
      </trkpt>
      <trkpt lat="43.62444" lon="1.20756">
        <ele>240.6</ele>
        <time>2013-05-01T07:26:48.000Z</time>
      </trkpt>
      <trkpt lat="43.62447" lon="1.2076">
        <ele>240.6</ele>
        <time>2013-05-01T07:26:50.000Z</time>
      </trkpt>
      <trkpt lat="43.6246" lon="1.20769">
        <ele>240.8</ele>
        <time>2013-05-01T07:26:55.000Z</time>
      </trkpt>
      <trkpt lat="43.62471" lon="1.20779">
        <ele>241</ele>
        <time>2013-05-01T07:27:00.000Z</time>
      </trkpt>
      <trkpt lat="43.62479" lon="1.20787">
        <ele>241</ele>
        <time>2013-05-01T07:27:04.000Z</time>
      </trkpt>
      <trkpt lat="43.62483" lon="1.20793">
        <ele>241</ele>
        <time>2013-05-01T07:27:07.000Z</time>
      </trkpt>
      <trkpt lat="43.62498" lon="1.20804">
        <ele>241.2</ele>
        <time>2013-05-01T07:27:14.000Z</time>
      </trkpt>
      <trkpt lat="43.62508" lon="1.20813">
        <ele>241.4</ele>
        <time>2013-05-01T07:27:19.000Z</time>
      </trkpt>
      <trkpt lat="43.6252" lon="1.20821">
        <ele>241.8</ele>
        <time>2013-05-01T07:27:24.000Z</time>
      </trkpt>
      <trkpt lat="43.62523" lon="1.20823">
        <ele>241.8</ele>
        <time>2013-05-01T07:27:25.000Z</time>
      </trkpt>
      <trkpt lat="43.62536" lon="1.20835">
        <ele>242.2</ele>
        <time>2013-05-01T07:27:31.000Z</time>
      </trkpt>
      <trkpt lat="43.6255" lon="1.20846">
        <ele>242.8</ele>
        <time>2013-05-01T07:27:37.000Z</time>
      </trkpt>
      <trkpt lat="43.62561" lon="1.20856">
        <ele>243.2</ele>
        <time>2013-05-01T07:27:41.000Z</time>
      </trkpt>
      <trkpt lat="43.62573" lon="1.20865">
        <ele>243.6</ele>
        <time>2013-05-01T07:27:46.000Z</time>
      </trkpt>
      <trkpt lat="43.62591" lon="1.20879">
        <ele>243.8</ele>
        <time>2013-05-01T07:27:53.000Z</time>
      </trkpt>
      <trkpt lat="43.62604" lon="1.2089">
        <ele>243.6</ele>
        <time>2013-05-01T07:27:58.000Z</time>
      </trkpt>
      <trkpt lat="43.62616" lon="1.20899">
        <ele>243.2</ele>
        <time>2013-05-01T07:28:03.000Z</time>
      </trkpt>
      <trkpt lat="43.62628" lon="1.20909">
        <ele>243</ele>
        <time>2013-05-01T07:28:08.000Z</time>
      </trkpt>
      <trkpt lat="43.62642" lon="1.20921">
        <ele>242.6</ele>
        <time>2013-05-01T07:28:14.000Z</time>
      </trkpt>
      <trkpt lat="43.62653" lon="1.20932">
        <ele>242.2</ele>
        <time>2013-05-01T07:28:19.000Z</time>
      </trkpt>
      <trkpt lat="43.62666" lon="1.20941">
        <ele>242</ele>
        <time>2013-05-01T07:28:24.000Z</time>
      </trkpt>
      <trkpt lat="43.62678" lon="1.20952">
        <ele>242</ele>
        <time>2013-05-01T07:28:29.000Z</time>
      </trkpt>
      <trkpt lat="43.62692" lon="1.20964">
        <ele>242</ele>
        <time>2013-05-01T07:28:35.000Z</time>
      </trkpt>
      <trkpt lat="43.62713" lon="1.20983">
        <ele>242.4</ele>
        <time>2013-05-01T07:28:45.000Z</time>
      </trkpt>
      <trkpt lat="43.62714" lon="1.20985">
        <ele>242.4</ele>
        <time>2013-05-01T07:28:46.000Z</time>
      </trkpt>
      <trkpt lat="43.62719" lon="1.20989">
        <ele>242.4</ele>
        <time>2013-05-01T07:28:48.000Z</time>
      </trkpt>
      <trkpt lat="43.62731" lon="1.20999">
        <ele>242.6</ele>
        <time>2013-05-01T07:28:53.000Z</time>
      </trkpt>
      <trkpt lat="43.62742" lon="1.21009">
        <ele>242.8</ele>
        <time>2013-05-01T07:28:58.000Z</time>
      </trkpt>
      <trkpt lat="43.62751" lon="1.21016">
        <ele>242.8</ele>
        <time>2013-05-01T07:29:02.000Z</time>
      </trkpt>
      <trkpt lat="43.62763" lon="1.21026">
        <ele>242.8</ele>
        <time>2013-05-01T07:29:07.000Z</time>
      </trkpt>
      <trkpt lat="43.62776" lon="1.21036">
        <ele>242.8</ele>
        <time>2013-05-01T07:29:12.000Z</time>
      </trkpt>
      <trkpt lat="43.62788" lon="1.21046">
        <ele>242.6</ele>
        <time>2013-05-01T07:29:17.000Z</time>
      </trkpt>
      <trkpt lat="43.62801" lon="1.21056">
        <ele>242.8</ele>
        <time>2013-05-01T07:29:22.000Z</time>
      </trkpt>
      <trkpt lat="43.62813" lon="1.21066">
        <ele>242.8</ele>
        <time>2013-05-01T07:29:27.000Z</time>
      </trkpt>
      <trkpt lat="43.62825" lon="1.21077">
        <ele>242.8</ele>
        <time>2013-05-01T07:29:32.000Z</time>
      </trkpt>
      <trkpt lat="43.62842" lon="1.21092">
        <ele>242.6</ele>
        <time>2013-05-01T07:29:39.000Z</time>
      </trkpt>
      <trkpt lat="43.62856" lon="1.21101">
        <ele>242.2</ele>
        <time>2013-05-01T07:29:44.000Z</time>
      </trkpt>
      <trkpt lat="43.6288" lon="1.2112">
        <ele>241.6</ele>
        <time>2013-05-01T07:29:54.000Z</time>
      </trkpt>
      <trkpt lat="43.62891" lon="1.2113">
        <ele>241.2</ele>
        <time>2013-05-01T07:29:59.000Z</time>
      </trkpt>
      <trkpt lat="43.62904" lon="1.21142">
        <ele>240.8</ele>
        <time>2013-05-01T07:30:05.000Z</time>
      </trkpt>
      <trkpt lat="43.62915" lon="1.21151">
        <ele>240.4</ele>
        <time>2013-05-01T07:30:10.000Z</time>
      </trkpt>
      <trkpt lat="43.62925" lon="1.2116">
        <ele>240.4</ele>
        <time>2013-05-01T07:30:15.000Z</time>
      </trkpt>
      <trkpt lat="43.62938" lon="1.21171">
        <ele>240.8</ele>
        <time>2013-05-01T07:30:21.000Z</time>
      </trkpt>
      <trkpt lat="43.62949" lon="1.21181">
        <ele>241.2</ele>
        <time>2013-05-01T07:30:26.000Z</time>
      </trkpt>
      <trkpt lat="43.62959" lon="1.21188">
        <ele>241.6</ele>
        <time>2013-05-01T07:30:30.000Z</time>
      </trkpt>
      <trkpt lat="43.62968" lon="1.21196">
        <ele>241.8</ele>
        <time>2013-05-01T07:30:34.000Z</time>
      </trkpt>
      <trkpt lat="43.6298" lon="1.21204">
        <ele>242.2</ele>
        <time>2013-05-01T07:30:38.000Z</time>
      </trkpt>
      <trkpt lat="43.62982" lon="1.21206">
        <ele>242.4</ele>
        <time>2013-05-01T07:30:39.000Z</time>
      </trkpt>
      <trkpt lat="43.62997" lon="1.21219">
        <ele>242.8</ele>
        <time>2013-05-01T07:30:46.000Z</time>
      </trkpt>
      <trkpt lat="43.63013" lon="1.21231">
        <ele>242.6</ele>
        <time>2013-05-01T07:30:52.000Z</time>
      </trkpt>
      <trkpt lat="43.63031" lon="1.21245">
        <ele>241.8</ele>
        <time>2013-05-01T07:30:59.000Z</time>
      </trkpt>
      <trkpt lat="43.6304" lon="1.21253">
        <ele>241.4</ele>
        <time>2013-05-01T07:31:03.000Z</time>
      </trkpt>
      <trkpt lat="43.63049" lon="1.21262">
        <ele>241</ele>
        <time>2013-05-01T07:31:07.000Z</time>
      </trkpt>
      <trkpt lat="43.63059" lon="1.2127">
        <ele>240.6</ele>
        <time>2013-05-01T07:31:11.000Z</time>
      </trkpt>
      <trkpt lat="43.63069" lon="1.21278">
        <ele>240</ele>
        <time>2013-05-01T07:31:15.000Z</time>
      </trkpt>
      <trkpt lat="43.63077" lon="1.21285">
        <ele>239.8</ele>
        <time>2013-05-01T07:31:19.000Z</time>
      </trkpt>
      <trkpt lat="43.63086" lon="1.21293">
        <ele>239.4</ele>
        <time>2013-05-01T07:31:23.000Z</time>
      </trkpt>
      <trkpt lat="43.63098" lon="1.21302">
        <ele>238.6</ele>
        <time>2013-05-01T07:31:28.000Z</time>
      </trkpt>
      <trkpt lat="43.63111" lon="1.21313">
        <ele>238</ele>
        <time>2013-05-01T07:31:33.000Z</time>
      </trkpt>
      <trkpt lat="43.6312" lon="1.21321">
        <ele>237.4</ele>
        <time>2013-05-01T07:31:37.000Z</time>
      </trkpt>
      <trkpt lat="43.63133" lon="1.21331">
        <ele>236.6</ele>
        <time>2013-05-01T07:31:42.000Z</time>
      </trkpt>
      <trkpt lat="43.63147" lon="1.21342">
        <ele>235.6</ele>
        <time>2013-05-01T07:31:48.000Z</time>
      </trkpt>
      <trkpt lat="43.63158" lon="1.21351">
        <ele>235</ele>
        <time>2013-05-01T07:31:53.000Z</time>
      </trkpt>
      <trkpt lat="43.63172" lon="1.21362">
        <ele>234.4</ele>
        <time>2013-05-01T07:31:58.000Z</time>
      </trkpt>
      <trkpt lat="43.63183" lon="1.21372">
        <ele>234.2</ele>
        <time>2013-05-01T07:32:03.000Z</time>
      </trkpt>
      <trkpt lat="43.63195" lon="1.21382">
        <ele>234</ele>
        <time>2013-05-01T07:32:08.000Z</time>
      </trkpt>
      <trkpt lat="43.63212" lon="1.21397">
        <ele>233.8</ele>
        <time>2013-05-01T07:32:15.000Z</time>
      </trkpt>
      <trkpt lat="43.63224" lon="1.21407">
        <ele>233.8</ele>
        <time>2013-05-01T07:32:20.000Z</time>
      </trkpt>
      <trkpt lat="43.6324" lon="1.21421">
        <ele>233.8</ele>
        <time>2013-05-01T07:32:27.000Z</time>
      </trkpt>
      <trkpt lat="43.63251" lon="1.21432">
        <ele>233.6</ele>
        <time>2013-05-01T07:32:32.000Z</time>
      </trkpt>
      <trkpt lat="43.63262" lon="1.2144">
        <ele>233.2</ele>
        <time>2013-05-01T07:32:36.000Z</time>
      </trkpt>
      <trkpt lat="43.63272" lon="1.21448">
        <ele>233</ele>
        <time>2013-05-01T07:32:40.000Z</time>
      </trkpt>
      <trkpt lat="43.63288" lon="1.21461">
        <ele>232.6</ele>
        <time>2013-05-01T07:32:46.000Z</time>
      </trkpt>
      <trkpt lat="43.63313" lon="1.21482">
        <ele>232.2</ele>
        <time>2013-05-01T07:32:56.000Z</time>
      </trkpt>
      <trkpt lat="43.63319" lon="1.21489">
        <ele>232</ele>
        <time>2013-05-01T07:32:59.000Z</time>
      </trkpt>
      <trkpt lat="43.63331" lon="1.21501">
        <ele>232</ele>
        <time>2013-05-01T07:33:05.000Z</time>
      </trkpt>
      <trkpt lat="43.63334" lon="1.21513">
        <ele>232.2</ele>
        <time>2013-05-01T07:33:09.000Z</time>
      </trkpt>
      <trkpt lat="43.63333" lon="1.21515">
        <ele>232.2</ele>
        <time>2013-05-01T07:33:10.000Z</time>
      </trkpt>
      <trkpt lat="43.63328" lon="1.21523">
        <ele>232.4</ele>
        <time>2013-05-01T07:33:14.000Z</time>
      </trkpt>
      <trkpt lat="43.63326" lon="1.21531">
        <ele>232.6</ele>
        <time>2013-05-01T07:33:19.000Z</time>
      </trkpt>
      <trkpt lat="43.63325" lon="1.2154">
        <ele>232.8</ele>
        <time>2013-05-01T07:33:22.000Z</time>
      </trkpt>
      <trkpt lat="43.63323" lon="1.21555">
        <ele>233.2</ele>
        <time>2013-05-01T07:33:27.000Z</time>
      </trkpt>
      <trkpt lat="43.63322" lon="1.21568">
        <ele>233.4</ele>
        <time>2013-05-01T07:33:32.000Z</time>
      </trkpt>
      <trkpt lat="43.6332" lon="1.21573">
        <ele>233.6</ele>
        <time>2013-05-01T07:33:34.000Z</time>
      </trkpt>
      <trkpt lat="43.63319" lon="1.2158">
        <ele>233.6</ele>
        <time>2013-05-01T07:33:40.000Z</time>
      </trkpt>
      <trkpt lat="43.63315" lon="1.21592">
        <ele>233.8</ele>
        <time>2013-05-01T07:33:47.000Z</time>
      </trkpt>
      <trkpt lat="43.63316" lon="1.21597">
        <ele>233.8</ele>
        <time>2013-05-01T07:33:50.000Z</time>
      </trkpt>
      <trkpt lat="43.63313" lon="1.21613">
        <ele>234.2</ele>
        <time>2013-05-01T07:33:57.000Z</time>
      </trkpt>
      <trkpt lat="43.63311" lon="1.21621">
        <ele>234.2</ele>
        <time>2013-05-01T07:34:02.000Z</time>
      </trkpt>
      <trkpt lat="43.63307" lon="1.21633">
        <ele>234.4</ele>
        <time>2013-05-01T07:34:06.000Z</time>
      </trkpt>
      <trkpt lat="43.63307" lon="1.21639">
        <ele>234.4</ele>
        <time>2013-05-01T07:34:09.000Z</time>
      </trkpt>
      <trkpt lat="43.63306" lon="1.21641">
        <ele>234.4</ele>
        <time>2013-05-01T07:34:10.000Z</time>
      </trkpt>
      <trkpt lat="43.63305" lon="1.21645">
        <ele>234.6</ele>
        <time>2013-05-01T07:34:12.000Z</time>
      </trkpt>
      <trkpt lat="43.63305" lon="1.21648">
        <ele>234.6</ele>
        <time>2013-05-01T07:34:14.000Z</time>
      </trkpt>
      <trkpt lat="43.63304" lon="1.21658">
        <ele>234.8</ele>
        <time>2013-05-01T07:34:19.000Z</time>
      </trkpt>
      <trkpt lat="43.63302" lon="1.21672">
        <ele>234.8</ele>
        <time>2013-05-01T07:34:24.000Z</time>
      </trkpt>
      <trkpt lat="43.63297" lon="1.21686">
        <ele>234.6</ele>
        <time>2013-05-01T07:34:29.000Z</time>
      </trkpt>
      <trkpt lat="43.63294" lon="1.21697">
        <ele>234.6</ele>
        <time>2013-05-01T07:34:33.000Z</time>
      </trkpt>
      <trkpt lat="43.6329" lon="1.21708">
        <ele>234.4</ele>
        <time>2013-05-01T07:34:37.000Z</time>
      </trkpt>
      <trkpt lat="43.63289" lon="1.21711">
        <ele>234.4</ele>
        <time>2013-05-01T07:34:38.000Z</time>
      </trkpt>
      <trkpt lat="43.63279" lon="1.21731">
        <ele>234.4</ele>
        <time>2013-05-01T07:34:45.000Z</time>
      </trkpt>
      <trkpt lat="43.6327" lon="1.2175">
        <ele>234.4</ele>
        <time>2013-05-01T07:34:51.000Z</time>
      </trkpt>
      <trkpt lat="43.63259" lon="1.21764">
        <ele>234.6</ele>
        <time>2013-05-01T07:34:57.000Z</time>
      </trkpt>
      <trkpt lat="43.63256" lon="1.21766">
        <ele>234.6</ele>
        <time>2013-05-01T07:34:58.000Z</time>
      </trkpt>
      <trkpt lat="43.63248" lon="1.21773">
        <ele>234.6</ele>
        <time>2013-05-01T07:35:02.000Z</time>
      </trkpt>
      <trkpt lat="43.6324" lon="1.21783">
        <ele>234.6</ele>
        <time>2013-05-01T07:35:06.000Z</time>
      </trkpt>
      <trkpt lat="43.63233" lon="1.21791">
        <ele>234.6</ele>
        <time>2013-05-01T07:35:09.000Z</time>
      </trkpt>
      <trkpt lat="43.63218" lon="1.21809">
        <ele>234.8</ele>
        <time>2013-05-01T07:35:16.000Z</time>
      </trkpt>
      <trkpt lat="43.63216" lon="1.21812">
        <ele>234.8</ele>
        <time>2013-05-01T07:35:17.000Z</time>
      </trkpt>
      <trkpt lat="43.63204" lon="1.21826">
        <ele>235</ele>
        <time>2013-05-01T07:35:23.000Z</time>
      </trkpt>
      <trkpt lat="43.63197" lon="1.21831">
        <ele>235.2</ele>
        <time>2013-05-01T07:35:26.000Z</time>
      </trkpt>
      <trkpt lat="43.63192" lon="1.21837">
        <ele>235.4</ele>
        <time>2013-05-01T07:35:29.000Z</time>
      </trkpt>
      <trkpt lat="43.63185" lon="1.21853">
        <ele>235.4</ele>
        <time>2013-05-01T07:35:35.000Z</time>
      </trkpt>
      <trkpt lat="43.63183" lon="1.21856">
        <ele>235.6</ele>
        <time>2013-05-01T07:35:36.000Z</time>
      </trkpt>
      <trkpt lat="43.6318" lon="1.2186">
        <ele>235.6</ele>
        <time>2013-05-01T07:35:38.000Z</time>
      </trkpt>
      <trkpt lat="43.63173" lon="1.21874">
        <ele>235.8</ele>
        <time>2013-05-01T07:35:43.000Z</time>
      </trkpt>
      <trkpt lat="43.63168" lon="1.21885">
        <ele>235.8</ele>
        <time>2013-05-01T07:35:47.000Z</time>
      </trkpt>
      <trkpt lat="43.63166" lon="1.21888">
        <ele>235.8</ele>
        <time>2013-05-01T07:35:48.000Z</time>
      </trkpt>
      <trkpt lat="43.63162" lon="1.219">
        <ele>235.8</ele>
        <time>2013-05-01T07:35:52.000Z</time>
      </trkpt>
      <trkpt lat="43.63161" lon="1.21903">
        <ele>235.8</ele>
        <time>2013-05-01T07:35:53.000Z</time>
      </trkpt>
      <trkpt lat="43.6316" lon="1.21906">
        <ele>235.8</ele>
        <time>2013-05-01T07:35:54.000Z</time>
      </trkpt>
      <trkpt lat="43.63152" lon="1.21914">
        <ele>235.6</ele>
        <time>2013-05-01T07:35:58.000Z</time>
      </trkpt>
      <trkpt lat="43.6315" lon="1.21917">
        <ele>235.4</ele>
        <time>2013-05-01T07:35:59.000Z</time>
      </trkpt>
      <trkpt lat="43.63147" lon="1.21923">
        <ele>235.4</ele>
        <time>2013-05-01T07:36:01.000Z</time>
      </trkpt>
      <trkpt lat="43.63135" lon="1.2193">
        <ele>235</ele>
        <time>2013-05-01T07:36:06.000Z</time>
      </trkpt>
      <trkpt lat="43.63126" lon="1.21931">
        <ele>234.8</ele>
        <time>2013-05-01T07:36:10.000Z</time>
      </trkpt>
      <trkpt lat="43.63118" lon="1.21935">
        <ele>234.6</ele>
        <time>2013-05-01T07:36:13.000Z</time>
      </trkpt>
      <trkpt lat="43.63106" lon="1.2194">
        <ele>234.2</ele>
        <time>2013-05-01T07:36:18.000Z</time>
      </trkpt>
      <trkpt lat="43.63096" lon="1.21941">
        <ele>234.2</ele>
        <time>2013-05-01T07:36:22.000Z</time>
      </trkpt>
      <trkpt lat="43.63094" lon="1.21941">
        <ele>234</ele>
        <time>2013-05-01T07:36:23.000Z</time>
      </trkpt>
      <trkpt lat="43.63083" lon="1.2194">
        <ele>233.8</ele>
        <time>2013-05-01T07:36:28.000Z</time>
      </trkpt>
      <trkpt lat="43.6307" lon="1.21944">
        <ele>233.8</ele>
        <time>2013-05-01T07:36:33.000Z</time>
      </trkpt>
      <trkpt lat="43.63055" lon="1.21952">
        <ele>233.4</ele>
        <time>2013-05-01T07:36:39.000Z</time>
      </trkpt>
      <trkpt lat="43.63037" lon="1.21964">
        <ele>233</ele>
        <time>2013-05-01T07:36:46.000Z</time>
      </trkpt>
      <trkpt lat="43.63019" lon="1.21973">
        <ele>232.4</ele>
        <time>2013-05-01T07:36:53.000Z</time>
      </trkpt>
      <trkpt lat="43.63003" lon="1.21982">
        <ele>231.6</ele>
        <time>2013-05-01T07:36:59.000Z</time>
      </trkpt>
      <trkpt lat="43.62993" lon="1.21985">
        <ele>231.2</ele>
        <time>2013-05-01T07:37:03.000Z</time>
      </trkpt>
      <trkpt lat="43.62988" lon="1.21985">
        <ele>231</ele>
        <time>2013-05-01T07:37:05.000Z</time>
      </trkpt>
      <trkpt lat="43.62977" lon="1.21986">
        <ele>230.6</ele>
        <time>2013-05-01T07:37:09.000Z</time>
      </trkpt>
      <trkpt lat="43.62972" lon="1.21986">
        <ele>230.4</ele>
        <time>2013-05-01T07:37:11.000Z</time>
      </trkpt>
      <trkpt lat="43.62954" lon="1.21983">
        <ele>229.8</ele>
        <time>2013-05-01T07:37:18.000Z</time>
      </trkpt>
      <trkpt lat="43.62944" lon="1.21978">
        <ele>229.6</ele>
        <time>2013-05-01T07:37:22.000Z</time>
      </trkpt>
      <trkpt lat="43.62931" lon="1.21973">
        <ele>229.4</ele>
        <time>2013-05-01T07:37:27.000Z</time>
      </trkpt>
      <trkpt lat="43.62919" lon="1.21967">
        <ele>229.2</ele>
        <time>2013-05-01T07:37:32.000Z</time>
      </trkpt>
      <trkpt lat="43.62914" lon="1.21965">
        <ele>229</ele>
        <time>2013-05-01T07:37:34.000Z</time>
      </trkpt>
      <trkpt lat="43.62902" lon="1.21955">
        <ele>228.4</ele>
        <time>2013-05-01T07:37:39.000Z</time>
      </trkpt>
      <trkpt lat="43.62887" lon="1.2194">
        <ele>228</ele>
        <time>2013-05-01T07:37:46.000Z</time>
      </trkpt>
      <trkpt lat="43.62881" lon="1.2193">
        <ele>227.8</ele>
        <time>2013-05-01T07:37:50.000Z</time>
      </trkpt>
      <trkpt lat="43.62871" lon="1.21919">
        <ele>227.6</ele>
        <time>2013-05-01T07:37:55.000Z</time>
      </trkpt>
      <trkpt lat="43.62861" lon="1.21908">
        <ele>227.2</ele>
        <time>2013-05-01T07:38:00.000Z</time>
      </trkpt>
      <trkpt lat="43.62858" lon="1.21906">
        <ele>227</ele>
        <time>2013-05-01T07:38:01.000Z</time>
      </trkpt>
      <trkpt lat="43.62852" lon="1.21902">
        <ele>226.8</ele>
        <time>2013-05-01T07:38:04.000Z</time>
      </trkpt>
      <trkpt lat="43.62845" lon="1.21897">
        <ele>226.6</ele>
        <time>2013-05-01T07:38:08.000Z</time>
      </trkpt>
      <trkpt lat="43.62842" lon="1.21897">
        <ele>226.4</ele>
        <time>2013-05-01T07:38:10.000Z</time>
      </trkpt>
      <trkpt lat="43.62837" lon="1.2189">
        <ele>226.4</ele>
        <time>2013-05-01T07:38:13.000Z</time>
      </trkpt>
      <trkpt lat="43.62824" lon="1.21882">
        <ele>226.4</ele>
        <time>2013-05-01T07:38:19.000Z</time>
      </trkpt>
      <trkpt lat="43.62813" lon="1.2188">
        <ele>226.2</ele>
        <time>2013-05-01T07:38:23.000Z</time>
      </trkpt>
      <trkpt lat="43.62808" lon="1.21882">
        <ele>226</ele>
        <time>2013-05-01T07:38:25.000Z</time>
      </trkpt>
      <trkpt lat="43.62802" lon="1.21885">
        <ele>225.6</ele>
        <time>2013-05-01T07:38:27.000Z</time>
      </trkpt>
      <trkpt lat="43.62791" lon="1.21889">
        <ele>225.2</ele>
        <time>2013-05-01T07:38:31.000Z</time>
      </trkpt>
      <trkpt lat="43.62775" lon="1.21894">
        <ele>224.6</ele>
        <time>2013-05-01T07:38:37.000Z</time>
      </trkpt>
      <trkpt lat="43.62759" lon="1.21901">
        <ele>223.8</ele>
        <time>2013-05-01T07:38:43.000Z</time>
      </trkpt>
      <trkpt lat="43.62743" lon="1.21904">
        <ele>223.4</ele>
        <time>2013-05-01T07:38:49.000Z</time>
      </trkpt>
      <trkpt lat="43.62722" lon="1.21904">
        <ele>223.2</ele>
        <time>2013-05-01T07:38:56.000Z</time>
      </trkpt>
      <trkpt lat="43.62708" lon="1.21906">
        <ele>222.8</ele>
        <time>2013-05-01T07:39:01.000Z</time>
      </trkpt>
      <trkpt lat="43.62694" lon="1.21903">
        <ele>222.8</ele>
        <time>2013-05-01T07:39:06.000Z</time>
      </trkpt>
      <trkpt lat="43.62681" lon="1.21899">
        <ele>222.8</ele>
        <time>2013-05-01T07:39:11.000Z</time>
      </trkpt>
      <trkpt lat="43.62679" lon="1.21897">
        <ele>222.8</ele>
        <time>2013-05-01T07:39:12.000Z</time>
      </trkpt>
      <trkpt lat="43.62669" lon="1.21892">
        <ele>222.8</ele>
        <time>2013-05-01T07:39:17.000Z</time>
      </trkpt>
      <trkpt lat="43.62668" lon="1.21892">
        <ele>222.8</ele>
        <time>2013-05-01T07:39:18.000Z</time>
      </trkpt>
      <trkpt lat="43.62663" lon="1.21888">
        <ele>222.8</ele>
        <time>2013-05-01T07:39:24.000Z</time>
      </trkpt>
      <trkpt lat="43.62661" lon="1.21887">
        <ele>222.8</ele>
        <time>2013-05-01T07:39:25.000Z</time>
      </trkpt>
      <trkpt lat="43.62657" lon="1.21884">
        <ele>223</ele>
        <time>2013-05-01T07:39:29.000Z</time>
      </trkpt>
      <trkpt lat="43.62653" lon="1.2188">
        <ele>223</ele>
        <time>2013-05-01T07:39:33.000Z</time>
      </trkpt>
      <trkpt lat="43.62638" lon="1.21875">
        <ele>223</ele>
        <time>2013-05-01T07:39:39.000Z</time>
      </trkpt>
      <trkpt lat="43.62633" lon="1.21874">
        <ele>223</ele>
        <time>2013-05-01T07:39:42.000Z</time>
      </trkpt>
      <trkpt lat="43.6263" lon="1.21874">
        <ele>223</ele>
        <time>2013-05-01T07:39:51.000Z</time>
      </trkpt>
      <trkpt lat="43.62624" lon="1.21872">
        <ele>223</ele>
        <time>2013-05-01T07:40:06.000Z</time>
      </trkpt>
      <trkpt lat="43.62609" lon="1.21865">
        <ele>223</ele>
        <time>2013-05-01T07:40:11.000Z</time>
      </trkpt>
      <trkpt lat="43.62593" lon="1.21857">
        <ele>223.2</ele>
        <time>2013-05-01T07:40:16.000Z</time>
      </trkpt>
      <trkpt lat="43.62577" lon="1.21848">
        <ele>223.2</ele>
        <time>2013-05-01T07:40:21.000Z</time>
      </trkpt>
      <trkpt lat="43.62563" lon="1.21841">
        <ele>222.8</ele>
        <time>2013-05-01T07:40:26.000Z</time>
      </trkpt>
      <trkpt lat="43.62549" lon="1.21835">
        <ele>222.6</ele>
        <time>2013-05-01T07:40:32.000Z</time>
      </trkpt>
      <trkpt lat="43.62542" lon="1.21829">
        <ele>222.4</ele>
        <time>2013-05-01T07:40:37.000Z</time>
      </trkpt>
      <trkpt lat="43.62532" lon="1.21824">
        <ele>222.2</ele>
        <time>2013-05-01T07:40:42.000Z</time>
      </trkpt>
      <trkpt lat="43.62517" lon="1.21818">
        <ele>221.8</ele>
        <time>2013-05-01T07:40:48.000Z</time>
      </trkpt>
      <trkpt lat="43.62497" lon="1.21819">
        <ele>221</ele>
        <time>2013-05-01T07:40:54.000Z</time>
      </trkpt>
      <trkpt lat="43.62494" lon="1.21819">
        <ele>221</ele>
        <time>2013-05-01T07:40:55.000Z</time>
      </trkpt>
      <trkpt lat="43.6248" lon="1.21819">
        <ele>220</ele>
        <time>2013-05-01T07:41:00.000Z</time>
      </trkpt>
      <trkpt lat="43.62465" lon="1.21817">
        <ele>219.2</ele>
        <time>2013-05-01T07:41:05.000Z</time>
      </trkpt>
      <trkpt lat="43.62447" lon="1.21818">
        <ele>218.2</ele>
        <time>2013-05-01T07:41:11.000Z</time>
      </trkpt>
      <trkpt lat="43.62432" lon="1.21817">
        <ele>217.2</ele>
        <time>2013-05-01T07:41:16.000Z</time>
      </trkpt>
      <trkpt lat="43.62416" lon="1.21818">
        <ele>216.2</ele>
        <time>2013-05-01T07:41:21.000Z</time>
      </trkpt>
      <trkpt lat="43.62403" lon="1.21817">
        <ele>216.2</ele>
        <time>2013-05-01T07:41:25.000Z</time>
      </trkpt>
      <trkpt lat="43.6239" lon="1.21813">
        <ele>216.2</ele>
        <time>2013-05-01T07:41:30.000Z</time>
      </trkpt>
      <trkpt lat="43.62374" lon="1.21807">
        <ele>216.2</ele>
        <time>2013-05-01T07:41:36.000Z</time>
      </trkpt>
      <trkpt lat="43.62362" lon="1.21804">
        <ele>216.2</ele>
        <time>2013-05-01T07:41:41.000Z</time>
      </trkpt>
      <trkpt lat="43.62355" lon="1.21809">
        <ele>216</ele>
        <time>2013-05-01T07:41:44.000Z</time>
      </trkpt>
      <trkpt lat="43.62342" lon="1.21806">
        <ele>216</ele>
        <time>2013-05-01T07:41:50.000Z</time>
      </trkpt>
      <trkpt lat="43.62337" lon="1.21803">
        <ele>216</ele>
        <time>2013-05-01T07:41:52.000Z</time>
      </trkpt>
      <trkpt lat="43.62333" lon="1.218">
        <ele>216.2</ele>
        <time>2013-05-01T07:41:54.000Z</time>
      </trkpt>
      <trkpt lat="43.62318" lon="1.21791">
        <ele>216</ele>
        <time>2013-05-01T07:42:00.000Z</time>
      </trkpt>
      <trkpt lat="43.62316" lon="1.21789">
        <ele>216</ele>
        <time>2013-05-01T07:42:01.000Z</time>
      </trkpt>
      <trkpt lat="43.62303" lon="1.21788">
        <ele>215.8</ele>
        <time>2013-05-01T07:42:06.000Z</time>
      </trkpt>
      <trkpt lat="43.62292" lon="1.21787">
        <ele>215.6</ele>
        <time>2013-05-01T07:42:10.000Z</time>
      </trkpt>
      <trkpt lat="43.6228" lon="1.21778">
        <ele>215.6</ele>
        <time>2013-05-01T07:42:15.000Z</time>
      </trkpt>
      <trkpt lat="43.62277" lon="1.21779">
        <ele>215.6</ele>
        <time>2013-05-01T07:42:16.000Z</time>
      </trkpt>
      <trkpt lat="43.62272" lon="1.21781">
        <ele>215.2</ele>
        <time>2013-05-01T07:42:18.000Z</time>
      </trkpt>
      <trkpt lat="43.62265" lon="1.21799">
        <ele>214.4</ele>
        <time>2013-05-01T07:42:23.000Z</time>
      </trkpt>
      <trkpt lat="43.6226" lon="1.21813">
        <ele>213.8</ele>
        <time>2013-05-01T07:42:27.000Z</time>
      </trkpt>
      <trkpt lat="43.62256" lon="1.21823">
        <ele>213.4</ele>
        <time>2013-05-01T07:42:30.000Z</time>
      </trkpt>
      <trkpt lat="43.62251" lon="1.21845">
        <ele>212.6</ele>
        <time>2013-05-01T07:42:36.000Z</time>
      </trkpt>
      <trkpt lat="43.62248" lon="1.2186">
        <ele>212.2</ele>
        <time>2013-05-01T07:42:40.000Z</time>
      </trkpt>
      <trkpt lat="43.62249" lon="1.21866">
        <ele>212</ele>
        <time>2013-05-01T07:42:42.000Z</time>
      </trkpt>
      <trkpt lat="43.62243" lon="1.2188">
        <ele>211.4</ele>
        <time>2013-05-01T07:42:46.000Z</time>
      </trkpt>
      <trkpt lat="43.62224" lon="1.21894">
        <ele>210</ele>
        <time>2013-05-01T07:42:53.000Z</time>
      </trkpt>
      <trkpt lat="43.62211" lon="1.2191">
        <ele>208.8</ele>
        <time>2013-05-01T07:42:59.000Z</time>
      </trkpt>
      <trkpt lat="43.62204" lon="1.21928">
        <ele>207.6</ele>
        <time>2013-05-01T07:43:04.000Z</time>
      </trkpt>
      <trkpt lat="43.622" lon="1.21932">
        <ele>207.2</ele>
        <time>2013-05-01T07:43:06.000Z</time>
      </trkpt>
      <trkpt lat="43.62193" lon="1.21948">
        <ele>206.2</ele>
        <time>2013-05-01T07:43:11.000Z</time>
      </trkpt>
      <trkpt lat="43.62185" lon="1.21956">
        <ele>205.4</ele>
        <time>2013-05-01T07:43:14.000Z</time>
      </trkpt>
      <trkpt lat="43.62172" lon="1.21979">
        <ele>204</ele>
        <time>2013-05-01T07:43:20.000Z</time>
      </trkpt>
      <trkpt lat="43.62165" lon="1.21996">
        <ele>203</ele>
        <time>2013-05-01T07:43:25.000Z</time>
      </trkpt>
      <trkpt lat="43.62155" lon="1.22012">
        <ele>201.6</ele>
        <time>2013-05-01T07:43:31.000Z</time>
      </trkpt>
      <trkpt lat="43.62145" lon="1.22029">
        <ele>200.6</ele>
        <time>2013-05-01T07:43:37.000Z</time>
      </trkpt>
      <trkpt lat="43.62137" lon="1.22046">
        <ele>199.8</ele>
        <time>2013-05-01T07:43:42.000Z</time>
      </trkpt>
      <trkpt lat="43.62129" lon="1.22063">
        <ele>199</ele>
        <time>2013-05-01T07:43:47.000Z</time>
      </trkpt>
      <trkpt lat="43.62119" lon="1.22085">
        <ele>198.2</ele>
        <time>2013-05-01T07:43:53.000Z</time>
      </trkpt>
      <trkpt lat="43.62113" lon="1.22097">
        <ele>198</ele>
        <time>2013-05-01T07:43:56.000Z</time>
      </trkpt>
      <trkpt lat="43.62111" lon="1.22105">
        <ele>197.8</ele>
        <time>2013-05-01T07:43:58.000Z</time>
      </trkpt>
      <trkpt lat="43.62103" lon="1.22125">
        <ele>197.6</ele>
        <time>2013-05-01T07:44:03.000Z</time>
      </trkpt>
      <trkpt lat="43.62095" lon="1.22146">
        <ele>197.2</ele>
        <time>2013-05-01T07:44:09.000Z</time>
      </trkpt>
      <trkpt lat="43.62086" lon="1.22164">
        <ele>197</ele>
        <time>2013-05-01T07:44:14.000Z</time>
      </trkpt>
      <trkpt lat="43.62079" lon="1.22186">
        <ele>196.4</ele>
        <time>2013-05-01T07:44:20.000Z</time>
      </trkpt>
      <trkpt lat="43.6207" lon="1.22208">
        <ele>195.6</ele>
        <time>2013-05-01T07:44:26.000Z</time>
      </trkpt>
      <trkpt lat="43.62063" lon="1.22231">
        <ele>195</ele>
        <time>2013-05-01T07:44:32.000Z</time>
      </trkpt>
      <trkpt lat="43.62055" lon="1.22248">
        <ele>194.6</ele>
        <time>2013-05-01T07:44:37.000Z</time>
      </trkpt>
      <trkpt lat="43.62046" lon="1.2227">
        <ele>194.4</ele>
        <time>2013-05-01T07:44:43.000Z</time>
      </trkpt>
      <trkpt lat="43.6203" lon="1.2231">
        <ele>194.2</ele>
        <time>2013-05-01T07:44:54.000Z</time>
      </trkpt>
      <trkpt lat="43.6202" lon="1.22333">
        <ele>194.2</ele>
        <time>2013-05-01T07:45:00.000Z</time>
      </trkpt>
      <trkpt lat="43.62015" lon="1.22348">
        <ele>194</ele>
        <time>2013-05-01T07:45:04.000Z</time>
      </trkpt>
      <trkpt lat="43.6201" lon="1.22364">
        <ele>194</ele>
        <time>2013-05-01T07:45:08.000Z</time>
      </trkpt>
      <trkpt lat="43.62004" lon="1.22378">
        <ele>194</ele>
        <time>2013-05-01T07:45:12.000Z</time>
      </trkpt>
      <trkpt lat="43.61996" lon="1.22395">
        <ele>194</ele>
        <time>2013-05-01T07:45:17.000Z</time>
      </trkpt>
      <trkpt lat="43.61988" lon="1.22418">
        <ele>194.2</ele>
        <time>2013-05-01T07:45:23.000Z</time>
      </trkpt>
      <trkpt lat="43.61979" lon="1.2244">
        <ele>194.2</ele>
        <time>2013-05-01T07:45:29.000Z</time>
      </trkpt>
      <trkpt lat="43.6197" lon="1.22461">
        <ele>194.2</ele>
        <time>2013-05-01T07:45:35.000Z</time>
      </trkpt>
      <trkpt lat="43.61963" lon="1.22485">
        <ele>194</ele>
        <time>2013-05-01T07:45:41.000Z</time>
      </trkpt>
      <trkpt lat="43.61955" lon="1.22503">
        <ele>193.8</ele>
        <time>2013-05-01T07:45:46.000Z</time>
      </trkpt>
      <trkpt lat="43.61946" lon="1.22525">
        <ele>193.6</ele>
        <time>2013-05-01T07:45:52.000Z</time>
      </trkpt>
      <trkpt lat="43.61939" lon="1.22543">
        <ele>193.2</ele>
        <time>2013-05-01T07:45:57.000Z</time>
      </trkpt>
      <trkpt lat="43.61933" lon="1.22561">
        <ele>193</ele>
        <time>2013-05-01T07:46:02.000Z</time>
      </trkpt>
      <trkpt lat="43.61925" lon="1.22577">
        <ele>192.8</ele>
        <time>2013-05-01T07:46:07.000Z</time>
      </trkpt>
      <trkpt lat="43.6192" lon="1.22593">
        <ele>193</ele>
        <time>2013-05-01T07:46:11.000Z</time>
      </trkpt>
      <trkpt lat="43.61911" lon="1.22614">
        <ele>193.2</ele>
        <time>2013-05-01T07:46:17.000Z</time>
      </trkpt>
      <trkpt lat="43.61901" lon="1.22638">
        <ele>193.4</ele>
        <time>2013-05-01T07:46:24.000Z</time>
      </trkpt>
      <trkpt lat="43.61896" lon="1.22644">
        <ele>193.4</ele>
        <time>2013-05-01T07:46:26.000Z</time>
      </trkpt>
      <trkpt lat="43.61878" lon="1.22647">
        <ele>193.4</ele>
        <time>2013-05-01T07:46:32.000Z</time>
      </trkpt>
      <trkpt lat="43.6186" lon="1.22648">
        <ele>193.2</ele>
        <time>2013-05-01T07:46:38.000Z</time>
      </trkpt>
      <trkpt lat="43.61842" lon="1.22648">
        <ele>193</ele>
        <time>2013-05-01T07:46:44.000Z</time>
      </trkpt>
      <trkpt lat="43.61827" lon="1.22649">
        <ele>193</ele>
        <time>2013-05-01T07:46:49.000Z</time>
      </trkpt>
      <trkpt lat="43.61809" lon="1.2265">
        <ele>193.2</ele>
        <time>2013-05-01T07:46:55.000Z</time>
      </trkpt>
      <trkpt lat="43.61788" lon="1.22652">
        <ele>193.6</ele>
        <time>2013-05-01T07:47:02.000Z</time>
      </trkpt>
      <trkpt lat="43.61768" lon="1.22654">
        <ele>193.8</ele>
        <time>2013-05-01T07:47:09.000Z</time>
      </trkpt>
      <trkpt lat="43.61752" lon="1.22656">
        <ele>194</ele>
        <time>2013-05-01T07:47:14.000Z</time>
      </trkpt>
      <trkpt lat="43.61738" lon="1.22657">
        <ele>194.4</ele>
        <time>2013-05-01T07:47:19.000Z</time>
      </trkpt>
      <trkpt lat="43.6172" lon="1.22658">
        <ele>194.8</ele>
        <time>2013-05-01T07:47:25.000Z</time>
      </trkpt>
      <trkpt lat="43.61703" lon="1.2266">
        <ele>195.2</ele>
        <time>2013-05-01T07:47:31.000Z</time>
      </trkpt>
      <trkpt lat="43.61693" lon="1.22669">
        <ele>195.2</ele>
        <time>2013-05-01T07:47:35.000Z</time>
      </trkpt>
      <trkpt lat="43.61684" lon="1.22684">
        <ele>195</ele>
        <time>2013-05-01T07:47:40.000Z</time>
      </trkpt>
      <trkpt lat="43.61673" lon="1.22703">
        <ele>194.4</ele>
        <time>2013-05-01T07:47:46.000Z</time>
      </trkpt>
      <trkpt lat="43.61664" lon="1.22719">
        <ele>194</ele>
        <time>2013-05-01T07:47:51.000Z</time>
      </trkpt>
      <trkpt lat="43.61654" lon="1.22734">
        <ele>193.4</ele>
        <time>2013-05-01T07:47:56.000Z</time>
      </trkpt>
      <trkpt lat="43.61647" lon="1.22751">
        <ele>193</ele>
        <time>2013-05-01T07:48:01.000Z</time>
      </trkpt>
      <trkpt lat="43.61639" lon="1.22768">
        <ele>193</ele>
        <time>2013-05-01T07:48:06.000Z</time>
      </trkpt>
      <trkpt lat="43.61631" lon="1.22785">
        <ele>193</ele>
        <time>2013-05-01T07:48:11.000Z</time>
      </trkpt>
      <trkpt lat="43.61623" lon="1.22806">
        <ele>193.2</ele>
        <time>2013-05-01T07:48:17.000Z</time>
      </trkpt>
      <trkpt lat="43.61614" lon="1.22826">
        <ele>193.4</ele>
        <time>2013-05-01T07:48:23.000Z</time>
      </trkpt>
      <trkpt lat="43.61605" lon="1.22851">
        <ele>193.6</ele>
        <time>2013-05-01T07:48:30.000Z</time>
      </trkpt>
      <trkpt lat="43.61598" lon="1.22873">
        <ele>193.8</ele>
        <time>2013-05-01T07:48:36.000Z</time>
      </trkpt>
      <trkpt lat="43.61593" lon="1.22891">
        <ele>193.8</ele>
        <time>2013-05-01T07:48:41.000Z</time>
      </trkpt>
      <trkpt lat="43.61587" lon="1.22907">
        <ele>193.8</ele>
        <time>2013-05-01T07:48:46.000Z</time>
      </trkpt>
      <trkpt lat="43.6158" lon="1.22932">
        <ele>193.4</ele>
        <time>2013-05-01T07:48:53.000Z</time>
      </trkpt>
      <trkpt lat="43.61574" lon="1.22953">
        <ele>193</ele>
        <time>2013-05-01T07:48:59.000Z</time>
      </trkpt>
      <trkpt lat="43.61569" lon="1.22975">
        <ele>192.4</ele>
        <time>2013-05-01T07:49:05.000Z</time>
      </trkpt>
      <trkpt lat="43.61567" lon="1.22985">
        <ele>192.2</ele>
        <time>2013-05-01T07:49:08.000Z</time>
      </trkpt>
      <trkpt lat="43.61558" lon="1.23004">
        <ele>192</ele>
        <time>2013-05-01T07:49:14.000Z</time>
      </trkpt>
      <trkpt lat="43.61555" lon="1.23022">
        <ele>192</ele>
        <time>2013-05-01T07:49:19.000Z</time>
      </trkpt>
      <trkpt lat="43.61553" lon="1.23049">
        <ele>192</ele>
        <time>2013-05-01T07:49:26.000Z</time>
      </trkpt>
      <trkpt lat="43.61549" lon="1.23069">
        <ele>192</ele>
        <time>2013-05-01T07:49:31.000Z</time>
      </trkpt>
      <trkpt lat="43.61544" lon="1.23088">
        <ele>192</ele>
        <time>2013-05-01T07:49:36.000Z</time>
      </trkpt>
      <trkpt lat="43.61538" lon="1.2312">
        <ele>192.2</ele>
        <time>2013-05-01T07:49:44.000Z</time>
      </trkpt>
      <trkpt lat="43.61534" lon="1.2314">
        <ele>192.6</ele>
        <time>2013-05-01T07:49:49.000Z</time>
      </trkpt>
      <trkpt lat="43.6153" lon="1.23165">
        <ele>192.8</ele>
        <time>2013-05-01T07:49:55.000Z</time>
      </trkpt>
      <trkpt lat="43.61527" lon="1.23186">
        <ele>193.2</ele>
        <time>2013-05-01T07:50:00.000Z</time>
      </trkpt>
      <trkpt lat="43.61523" lon="1.2321">
        <ele>193.4</ele>
        <time>2013-05-01T07:50:06.000Z</time>
      </trkpt>
      <trkpt lat="43.6152" lon="1.23234">
        <ele>193.8</ele>
        <time>2013-05-01T07:50:12.000Z</time>
      </trkpt>
      <trkpt lat="43.61516" lon="1.23258">
        <ele>193.8</ele>
        <time>2013-05-01T07:50:18.000Z</time>
      </trkpt>
      <trkpt lat="43.61513" lon="1.23278">
        <ele>193.8</ele>
        <time>2013-05-01T07:50:23.000Z</time>
      </trkpt>
      <trkpt lat="43.6151" lon="1.23298">
        <ele>193.8</ele>
        <time>2013-05-01T07:50:28.000Z</time>
      </trkpt>
      <trkpt lat="43.61507" lon="1.2331">
        <ele>193.8</ele>
        <time>2013-05-01T07:50:31.000Z</time>
      </trkpt>
      <trkpt lat="43.61494" lon="1.23327">
        <ele>194</ele>
        <time>2013-05-01T07:50:37.000Z</time>
      </trkpt>
      <trkpt lat="43.61486" lon="1.23344">
        <ele>194</ele>
        <time>2013-05-01T07:50:42.000Z</time>
      </trkpt>
      <trkpt lat="43.6148" lon="1.23367">
        <ele>194</ele>
        <time>2013-05-01T07:50:48.000Z</time>
      </trkpt>
      <trkpt lat="43.61475" lon="1.23391">
        <ele>194</ele>
        <time>2013-05-01T07:50:54.000Z</time>
      </trkpt>
      <trkpt lat="43.61471" lon="1.23416">
        <ele>194</ele>
        <time>2013-05-01T07:51:00.000Z</time>
      </trkpt>
      <trkpt lat="43.61467" lon="1.2344">
        <ele>193.6</ele>
        <time>2013-05-01T07:51:06.000Z</time>
      </trkpt>
      <trkpt lat="43.61462" lon="1.23468">
        <ele>193.2</ele>
        <time>2013-05-01T07:51:13.000Z</time>
      </trkpt>
      <trkpt lat="43.61457" lon="1.23491">
        <ele>193</ele>
        <time>2013-05-01T07:51:19.000Z</time>
      </trkpt>
      <trkpt lat="43.61453" lon="1.23511">
        <ele>193</ele>
        <time>2013-05-01T07:51:24.000Z</time>
      </trkpt>
      <trkpt lat="43.61448" lon="1.2353">
        <ele>193</ele>
        <time>2013-05-01T07:51:29.000Z</time>
      </trkpt>
      <trkpt lat="43.61444" lon="1.23548">
        <ele>193</ele>
        <time>2013-05-01T07:51:34.000Z</time>
      </trkpt>
      <trkpt lat="43.61439" lon="1.23566">
        <ele>193</ele>
        <time>2013-05-01T07:51:39.000Z</time>
      </trkpt>
      <trkpt lat="43.61434" lon="1.23585">
        <ele>193</ele>
        <time>2013-05-01T07:51:44.000Z</time>
      </trkpt>
      <trkpt lat="43.61428" lon="1.23609">
        <ele>193</ele>
        <time>2013-05-01T07:51:50.000Z</time>
      </trkpt>
      <trkpt lat="43.61422" lon="1.23632">
        <ele>193</ele>
        <time>2013-05-01T07:51:56.000Z</time>
      </trkpt>
      <trkpt lat="43.61415" lon="1.23655">
        <ele>193</ele>
        <time>2013-05-01T07:52:02.000Z</time>
      </trkpt>
      <trkpt lat="43.61409" lon="1.23679">
        <ele>193</ele>
        <time>2013-05-01T07:52:08.000Z</time>
      </trkpt>
      <trkpt lat="43.61404" lon="1.23698">
        <ele>193</ele>
        <time>2013-05-01T07:52:13.000Z</time>
      </trkpt>
      <trkpt lat="43.61404" lon="1.23702">
        <ele>193</ele>
        <time>2013-05-01T07:52:14.000Z</time>
      </trkpt>
      <trkpt lat="43.61395" lon="1.23707">
        <ele>193</ele>
        <time>2013-05-01T07:52:18.000Z</time>
      </trkpt>
      <trkpt lat="43.61379" lon="1.23702">
        <ele>193</ele>
        <time>2013-05-01T07:52:23.000Z</time>
      </trkpt>
      <trkpt lat="43.61364" lon="1.23702">
        <ele>193</ele>
        <time>2013-05-01T07:52:28.000Z</time>
      </trkpt>
      <trkpt lat="43.61346" lon="1.23703">
        <ele>193</ele>
        <time>2013-05-01T07:52:34.000Z</time>
      </trkpt>
      <trkpt lat="43.61324" lon="1.23704">
        <ele>193.2</ele>
        <time>2013-05-01T07:52:41.000Z</time>
      </trkpt>
      <trkpt lat="43.61304" lon="1.23705">
        <ele>193.8</ele>
        <time>2013-05-01T07:52:48.000Z</time>
      </trkpt>
      <trkpt lat="43.61285" lon="1.23705">
        <ele>194.4</ele>
        <time>2013-05-01T07:52:54.000Z</time>
      </trkpt>
      <trkpt lat="43.61268" lon="1.23705">
        <ele>194.8</ele>
        <time>2013-05-01T07:53:00.000Z</time>
      </trkpt>
      <trkpt lat="43.6125" lon="1.23704">
        <ele>195.4</ele>
        <time>2013-05-01T07:53:06.000Z</time>
      </trkpt>
      <trkpt lat="43.61236" lon="1.23704">
        <ele>195.2</ele>
        <time>2013-05-01T07:53:11.000Z</time>
      </trkpt>
      <trkpt lat="43.61219" lon="1.23705">
        <ele>194.8</ele>
        <time>2013-05-01T07:53:17.000Z</time>
      </trkpt>
      <trkpt lat="43.61202" lon="1.23704">
        <ele>194.6</ele>
        <time>2013-05-01T07:53:23.000Z</time>
      </trkpt>
      <trkpt lat="43.61188" lon="1.23704">
        <ele>194.2</ele>
        <time>2013-05-01T07:53:28.000Z</time>
      </trkpt>
      <trkpt lat="43.61168" lon="1.23703">
        <ele>194</ele>
        <time>2013-05-01T07:53:35.000Z</time>
      </trkpt>
      <trkpt lat="43.61148" lon="1.23703">
        <ele>193.8</ele>
        <time>2013-05-01T07:53:42.000Z</time>
      </trkpt>
      <trkpt lat="43.61127" lon="1.23701">
        <ele>193.6</ele>
        <time>2013-05-01T07:53:49.000Z</time>
      </trkpt>
      <trkpt lat="43.61125" lon="1.23702">
        <ele>193.4</ele>
        <time>2013-05-01T07:53:50.000Z</time>
      </trkpt>
      <trkpt lat="43.61113" lon="1.23689">
        <ele>193.6</ele>
        <time>2013-05-01T07:53:55.000Z</time>
      </trkpt>
      <trkpt lat="43.61109" lon="1.23674">
        <ele>193.8</ele>
        <time>2013-05-01T07:53:59.000Z</time>
      </trkpt>
      <trkpt lat="43.61097" lon="1.2367">
        <ele>193.8</ele>
        <time>2013-05-01T07:54:03.000Z</time>
      </trkpt>
      <trkpt lat="43.61094" lon="1.2367">
        <ele>193.8</ele>
        <time>2013-05-01T07:54:04.000Z</time>
      </trkpt>
      <trkpt lat="43.61083" lon="1.23665">
        <ele>194</ele>
        <time>2013-05-01T07:54:08.000Z</time>
      </trkpt>
      <trkpt lat="43.61081" lon="1.23662">
        <ele>194</ele>
        <time>2013-05-01T07:54:09.000Z</time>
      </trkpt>
      <trkpt lat="43.6107" lon="1.23649">
        <ele>194</ele>
        <time>2013-05-01T07:54:14.000Z</time>
      </trkpt>
      <trkpt lat="43.61056" lon="1.23633">
        <ele>194.2</ele>
        <time>2013-05-01T07:54:20.000Z</time>
      </trkpt>
      <trkpt lat="43.61042" lon="1.23615">
        <ele>194.4</ele>
        <time>2013-05-01T07:54:26.000Z</time>
      </trkpt>
      <trkpt lat="43.61026" lon="1.23597">
        <ele>194.6</ele>
        <time>2013-05-01T07:54:33.000Z</time>
      </trkpt>
      <trkpt lat="43.61012" lon="1.23582">
        <ele>194.8</ele>
        <time>2013-05-01T07:54:39.000Z</time>
      </trkpt>
      <trkpt lat="43.60997" lon="1.23564">
        <ele>194.8</ele>
        <time>2013-05-01T07:54:46.000Z</time>
      </trkpt>
      <trkpt lat="43.6098" lon="1.23548">
        <ele>194.8</ele>
        <time>2013-05-01T07:54:53.000Z</time>
      </trkpt>
      <trkpt lat="43.60967" lon="1.23533">
        <ele>194.4</ele>
        <time>2013-05-01T07:54:59.000Z</time>
      </trkpt>
      <trkpt lat="43.60952" lon="1.23515">
        <ele>194</ele>
        <time>2013-05-01T07:55:06.000Z</time>
      </trkpt>
      <trkpt lat="43.6094" lon="1.23498">
        <ele>193.4</ele>
        <time>2013-05-01T07:55:12.000Z</time>
      </trkpt>
      <trkpt lat="43.60928" lon="1.23488">
        <ele>193.2</ele>
        <time>2013-05-01T07:55:17.000Z</time>
      </trkpt>
      <trkpt lat="43.60909" lon="1.23476">
        <ele>193.2</ele>
        <time>2013-05-01T07:55:24.000Z</time>
      </trkpt>
      <trkpt lat="43.60894" lon="1.23467">
        <ele>193</ele>
        <time>2013-05-01T07:55:30.000Z</time>
      </trkpt>
      <trkpt lat="43.60879" lon="1.23458">
        <ele>193</ele>
        <time>2013-05-01T07:55:36.000Z</time>
      </trkpt>
      <trkpt lat="43.60862" lon="1.23454">
        <ele>192.8</ele>
        <time>2013-05-01T07:55:42.000Z</time>
      </trkpt>
      <trkpt lat="43.60842" lon="1.23448">
        <ele>192.4</ele>
        <time>2013-05-01T07:55:49.000Z</time>
      </trkpt>
      <trkpt lat="43.60826" lon="1.23441">
        <ele>192.4</ele>
        <time>2013-05-01T07:55:55.000Z</time>
      </trkpt>
      <trkpt lat="43.60811" lon="1.23435">
        <ele>192.8</ele>
        <time>2013-05-01T07:56:00.000Z</time>
      </trkpt>
      <trkpt lat="43.60791" lon="1.23429">
        <ele>193.2</ele>
        <time>2013-05-01T07:56:07.000Z</time>
      </trkpt>
      <trkpt lat="43.60776" lon="1.23426">
        <ele>193.4</ele>
        <time>2013-05-01T07:56:13.000Z</time>
      </trkpt>
      <trkpt lat="43.60768" lon="1.23429">
        <ele>193.8</ele>
        <time>2013-05-01T07:56:17.000Z</time>
      </trkpt>
      <trkpt lat="43.60756" lon="1.23435">
        <ele>194.2</ele>
        <time>2013-05-01T07:56:22.000Z</time>
      </trkpt>
      <trkpt lat="43.60742" lon="1.23436">
        <ele>194.6</ele>
        <time>2013-05-01T07:56:28.000Z</time>
      </trkpt>
      <trkpt lat="43.60731" lon="1.23442">
        <ele>194.8</ele>
        <time>2013-05-01T07:56:33.000Z</time>
      </trkpt>
      <trkpt lat="43.60722" lon="1.23448">
        <ele>195</ele>
        <time>2013-05-01T07:56:37.000Z</time>
      </trkpt>
      <trkpt lat="43.60712" lon="1.23442">
        <ele>195</ele>
        <time>2013-05-01T07:56:42.000Z</time>
      </trkpt>
      <trkpt lat="43.6071" lon="1.23442">
        <ele>195</ele>
        <time>2013-05-01T07:56:43.000Z</time>
      </trkpt>
      <trkpt lat="43.60705" lon="1.23455">
        <ele>195.2</ele>
        <time>2013-05-01T07:56:48.000Z</time>
      </trkpt>
      <trkpt lat="43.60702" lon="1.23468">
        <ele>195.2</ele>
        <time>2013-05-01T07:56:52.000Z</time>
      </trkpt>
      <trkpt lat="43.60694" lon="1.23494">
        <ele>195.2</ele>
        <time>2013-05-01T07:57:00.000Z</time>
      </trkpt>
      <trkpt lat="43.60688" lon="1.23512">
        <ele>195</ele>
        <time>2013-05-01T07:57:06.000Z</time>
      </trkpt>
      <trkpt lat="43.60683" lon="1.23527">
        <ele>194.8</ele>
        <time>2013-05-01T07:57:11.000Z</time>
      </trkpt>
      <trkpt lat="43.60679" lon="1.23541">
        <ele>194.6</ele>
        <time>2013-05-01T07:57:17.000Z</time>
      </trkpt>
      <trkpt lat="43.60674" lon="1.23557">
        <ele>194.4</ele>
        <time>2013-05-01T07:57:23.000Z</time>
      </trkpt>
      <trkpt lat="43.60671" lon="1.23567">
        <ele>194.2</ele>
        <time>2013-05-01T07:57:27.000Z</time>
      </trkpt>
      <trkpt lat="43.60665" lon="1.23584">
        <ele>194</ele>
        <time>2013-05-01T07:57:33.000Z</time>
      </trkpt>
      <trkpt lat="43.60661" lon="1.23601">
        <ele>194</ele>
        <time>2013-05-01T07:57:39.000Z</time>
      </trkpt>
      <trkpt lat="43.60657" lon="1.23611">
        <ele>194</ele>
        <time>2013-05-01T07:57:43.000Z</time>
      </trkpt>
      <trkpt lat="43.60651" lon="1.23633">
        <ele>193.8</ele>
        <time>2013-05-01T07:57:50.000Z</time>
      </trkpt>
      <trkpt lat="43.60648" lon="1.2365">
        <ele>193.8</ele>
        <time>2013-05-01T07:57:55.000Z</time>
      </trkpt>
      <trkpt lat="43.60643" lon="1.23669">
        <ele>193.6</ele>
        <time>2013-05-01T07:58:01.000Z</time>
      </trkpt>
      <trkpt lat="43.60639" lon="1.23681">
        <ele>193.2</ele>
        <time>2013-05-01T07:58:07.000Z</time>
      </trkpt>
      <trkpt lat="43.60634" lon="1.23698">
        <ele>193</ele>
        <time>2013-05-01T07:58:14.000Z</time>
      </trkpt>
      <trkpt lat="43.60631" lon="1.2372">
        <ele>192.4</ele>
        <time>2013-05-01T07:58:20.000Z</time>
      </trkpt>
      <trkpt lat="43.60624" lon="1.23743">
        <ele>192</ele>
        <time>2013-05-01T07:58:26.000Z</time>
      </trkpt>
      <trkpt lat="43.6062" lon="1.2376">
        <ele>191.8</ele>
        <time>2013-05-01T07:58:31.000Z</time>
      </trkpt>
      <trkpt lat="43.60614" lon="1.23775">
        <ele>191.8</ele>
        <time>2013-05-01T07:58:36.000Z</time>
      </trkpt>
      <trkpt lat="43.60613" lon="1.23778">
        <ele>191.8</ele>
        <time>2013-05-01T07:58:37.000Z</time>
      </trkpt>
      <trkpt lat="43.60612" lon="1.23783">
        <ele>191.8</ele>
        <time>2013-05-01T07:58:39.000Z</time>
      </trkpt>
      <trkpt lat="43.60607" lon="1.23797">
        <ele>191.8</ele>
        <time>2013-05-01T07:58:47.000Z</time>
      </trkpt>
      <trkpt lat="43.60605" lon="1.23815">
        <ele>191.8</ele>
        <time>2013-05-01T07:58:53.000Z</time>
      </trkpt>
      <trkpt lat="43.60595" lon="1.23846">
        <ele>191.8</ele>
        <time>2013-05-01T07:59:03.000Z</time>
      </trkpt>
      <trkpt lat="43.60586" lon="1.2387">
        <ele>191.8</ele>
        <time>2013-05-01T07:59:11.000Z</time>
      </trkpt>
      <trkpt lat="43.60582" lon="1.23888">
        <ele>192</ele>
        <time>2013-05-01T07:59:17.000Z</time>
      </trkpt>
      <trkpt lat="43.60577" lon="1.23904">
        <ele>192</ele>
        <time>2013-05-01T07:59:22.000Z</time>
      </trkpt>
      <trkpt lat="43.60572" lon="1.23926">
        <ele>192.6</ele>
        <time>2013-05-01T07:59:29.000Z</time>
      </trkpt>
      <trkpt lat="43.6057" lon="1.23929">
        <ele>192.6</ele>
        <time>2013-05-01T07:59:30.000Z</time>
      </trkpt>
      <trkpt lat="43.60563" lon="1.23933">
        <ele>193</ele>
        <time>2013-05-01T07:59:34.000Z</time>
      </trkpt>
      <trkpt lat="43.60551" lon="1.2393">
        <ele>193.4</ele>
        <time>2013-05-01T07:59:39.000Z</time>
      </trkpt>
      <trkpt lat="43.60541" lon="1.23924">
        <ele>193.6</ele>
        <time>2013-05-01T07:59:44.000Z</time>
      </trkpt>
      <trkpt lat="43.60526" lon="1.2392">
        <ele>194</ele>
        <time>2013-05-01T07:59:51.000Z</time>
      </trkpt>
      <trkpt lat="43.60512" lon="1.23929">
        <ele>194.8</ele>
        <time>2013-05-01T07:59:57.000Z</time>
      </trkpt>
      <trkpt lat="43.60507" lon="1.23944">
        <ele>195.2</ele>
        <time>2013-05-01T08:00:01.000Z</time>
      </trkpt>
      <trkpt lat="43.60507" lon="1.23948">
        <ele>195.4</ele>
        <time>2013-05-01T08:00:02.000Z</time>
      </trkpt>
      <trkpt lat="43.60502" lon="1.23963">
        <ele>196</ele>
        <time>2013-05-01T08:00:08.000Z</time>
      </trkpt>
      <trkpt lat="43.60496" lon="1.23974">
        <ele>196</ele>
        <time>2013-05-01T08:00:12.000Z</time>
      </trkpt>
      <trkpt lat="43.60489" lon="1.23988">
        <ele>196</ele>
        <time>2013-05-01T08:00:17.000Z</time>
      </trkpt>
      <trkpt lat="43.60483" lon="1.23998">
        <ele>195.6</ele>
        <time>2013-05-01T08:00:21.000Z</time>
      </trkpt>
      <trkpt lat="43.60477" lon="1.24011">
        <ele>194.2</ele>
        <time>2013-05-01T08:00:26.000Z</time>
      </trkpt>
      <trkpt lat="43.60475" lon="1.24023">
        <ele>193</ele>
        <time>2013-05-01T08:00:30.000Z</time>
      </trkpt>
      <trkpt lat="43.60467" lon="1.2404">
        <ele>190.8</ele>
        <time>2013-05-01T08:00:36.000Z</time>
      </trkpt>
      <trkpt lat="43.60465" lon="1.24045">
        <ele>190.2</ele>
        <time>2013-05-01T08:00:38.000Z</time>
      </trkpt>
      <trkpt lat="43.60456" lon="1.24048">
        <ele>189.4</ele>
        <time>2013-05-01T08:00:42.000Z</time>
      </trkpt>
      <trkpt lat="43.6045" lon="1.24043">
        <ele>189.4</ele>
        <time>2013-05-01T08:00:45.000Z</time>
      </trkpt>
      <trkpt lat="43.60445" lon="1.24039">
        <ele>189.6</ele>
        <time>2013-05-01T08:00:49.000Z</time>
      </trkpt>
      <trkpt lat="43.6044" lon="1.24035">
        <ele>189.6</ele>
        <time>2013-05-01T08:00:57.000Z</time>
      </trkpt>
      <trkpt lat="43.6044" lon="1.24035">
        <ele>189.6</ele>
        <time>2013-05-01T08:00:58.000Z</time>
      </trkpt>
      <trkpt lat="43.60437" lon="1.24034">
        <ele>189.4</ele>
        <time>2013-05-01T08:01:00.000Z</time>
      </trkpt>
      <trkpt lat="43.60427" lon="1.24031">
        <ele>189</ele>
        <time>2013-05-01T08:01:05.000Z</time>
      </trkpt>
      <trkpt lat="43.60413" lon="1.24033">
        <ele>187.8</ele>
        <time>2013-05-01T08:01:10.000Z</time>
      </trkpt>
      <trkpt lat="43.60411" lon="1.24033">
        <ele>187.6</ele>
        <time>2013-05-01T08:01:11.000Z</time>
      </trkpt>
      <trkpt lat="43.60397" lon="1.24033">
        <ele>186.6</ele>
        <time>2013-05-01T08:01:16.000Z</time>
      </trkpt>
      <trkpt lat="43.6038" lon="1.24034">
        <ele>185</ele>
        <time>2013-05-01T08:01:22.000Z</time>
      </trkpt>
      <trkpt lat="43.60363" lon="1.24034">
        <ele>183.8</ele>
        <time>2013-05-01T08:01:28.000Z</time>
      </trkpt>
      <trkpt lat="43.60361" lon="1.24032">
        <ele>183.6</ele>
        <time>2013-05-01T08:01:29.000Z</time>
      </trkpt>
      <trkpt lat="43.60349" lon="1.24019">
        <ele>182.6</ele>
        <time>2013-05-01T08:01:34.000Z</time>
      </trkpt>
      <trkpt lat="43.60336" lon="1.24005">
        <ele>181.2</ele>
        <time>2013-05-01T08:01:40.000Z</time>
      </trkpt>
      <trkpt lat="43.60324" lon="1.23992">
        <ele>181.6</ele>
        <time>2013-05-01T08:01:45.000Z</time>
      </trkpt>
      <trkpt lat="43.60315" lon="1.23984">
        <ele>182</ele>
        <time>2013-05-01T08:01:49.000Z</time>
      </trkpt>
      <trkpt lat="43.60303" lon="1.23991">
        <ele>182.2</ele>
        <time>2013-05-01T08:01:54.000Z</time>
      </trkpt>
      <trkpt lat="43.60301" lon="1.23993">
        <ele>182.2</ele>
        <time>2013-05-01T08:01:55.000Z</time>
      </trkpt>
      <trkpt lat="43.60288" lon="1.24008">
        <ele>182.8</ele>
        <time>2013-05-01T08:02:02.000Z</time>
      </trkpt>
      <trkpt lat="43.60277" lon="1.2402">
        <ele>183.6</ele>
        <time>2013-05-01T08:02:07.000Z</time>
      </trkpt>
      <trkpt lat="43.60263" lon="1.24035">
        <ele>185</ele>
        <time>2013-05-01T08:02:14.000Z</time>
      </trkpt>
      <trkpt lat="43.60252" lon="1.24044">
        <ele>186</ele>
        <time>2013-05-01T08:02:20.000Z</time>
      </trkpt>
      <trkpt lat="43.6024" lon="1.24055">
        <ele>186.6</ele>
        <time>2013-05-01T08:02:28.000Z</time>
      </trkpt>
      <trkpt lat="43.60234" lon="1.24066">
        <ele>187.4</ele>
        <time>2013-05-01T08:02:33.000Z</time>
      </trkpt>
      <trkpt lat="43.60225" lon="1.2408">
        <ele>188.2</ele>
        <time>2013-05-01T08:02:40.000Z</time>
      </trkpt>
      <trkpt lat="43.60218" lon="1.24094">
        <ele>189.2</ele>
        <time>2013-05-01T08:02:46.000Z</time>
      </trkpt>
      <trkpt lat="43.6021" lon="1.24111">
        <ele>190.4</ele>
        <time>2013-05-01T08:02:53.000Z</time>
      </trkpt>
      <trkpt lat="43.602" lon="1.24127">
        <ele>191.4</ele>
        <time>2013-05-01T08:03:00.000Z</time>
      </trkpt>
      <trkpt lat="43.60188" lon="1.24142">
        <ele>192.4</ele>
        <time>2013-05-01T08:03:07.000Z</time>
      </trkpt>
      <trkpt lat="43.6018" lon="1.24151">
        <ele>193</ele>
        <time>2013-05-01T08:03:12.000Z</time>
      </trkpt>
      <trkpt lat="43.60169" lon="1.24165">
        <ele>193.8</ele>
        <time>2013-05-01T08:03:18.000Z</time>
      </trkpt>
      <trkpt lat="43.60159" lon="1.24177">
        <ele>194</ele>
        <time>2013-05-01T08:03:23.000Z</time>
      </trkpt>
      <trkpt lat="43.60149" lon="1.24189">
        <ele>194.2</ele>
        <time>2013-05-01T08:03:28.000Z</time>
      </trkpt>
      <trkpt lat="43.60143" lon="1.24196">
        <ele>194.2</ele>
        <time>2013-05-01T08:03:31.000Z</time>
      </trkpt>
      <trkpt lat="43.60145" lon="1.24209">
        <ele>194.2</ele>
        <time>2013-05-01T08:03:35.000Z</time>
      </trkpt>
      <trkpt lat="43.60147" lon="1.24212">
        <ele>194.2</ele>
        <time>2013-05-01T08:03:36.000Z</time>
      </trkpt>
      <trkpt lat="43.60158" lon="1.24225">
        <ele>194</ele>
        <time>2013-05-01T08:03:41.000Z</time>
      </trkpt>
      <trkpt lat="43.60169" lon="1.24236">
        <ele>193.8</ele>
        <time>2013-05-01T08:03:46.000Z</time>
      </trkpt>
      <trkpt lat="43.60184" lon="1.24252">
        <ele>194</ele>
        <time>2013-05-01T08:03:52.000Z</time>
      </trkpt>
      <trkpt lat="43.60194" lon="1.24263">
        <ele>194</ele>
        <time>2013-05-01T08:03:56.000Z</time>
      </trkpt>
      <trkpt lat="43.60206" lon="1.24277">
        <ele>194</ele>
        <time>2013-05-01T08:04:01.000Z</time>
      </trkpt>
      <trkpt lat="43.60219" lon="1.24293">
        <ele>193.8</ele>
        <time>2013-05-01T08:04:07.000Z</time>
      </trkpt>
      <trkpt lat="43.60234" lon="1.24309">
        <ele>193.4</ele>
        <time>2013-05-01T08:04:13.000Z</time>
      </trkpt>
      <trkpt lat="43.60249" lon="1.24326">
        <ele>193</ele>
        <time>2013-05-01T08:04:19.000Z</time>
      </trkpt>
      <trkpt lat="43.60258" lon="1.2434">
        <ele>192.8</ele>
        <time>2013-05-01T08:04:23.000Z</time>
      </trkpt>
      <trkpt lat="43.60263" lon="1.24366">
        <ele>192.4</ele>
        <time>2013-05-01T08:04:29.000Z</time>
      </trkpt>
      <trkpt lat="43.60265" lon="1.24389">
        <ele>192.2</ele>
        <time>2013-05-01T08:04:34.000Z</time>
      </trkpt>
      <trkpt lat="43.60266" lon="1.2441">
        <ele>192</ele>
        <time>2013-05-01T08:04:39.000Z</time>
      </trkpt>
      <trkpt lat="43.60268" lon="1.24436">
        <ele>192</ele>
        <time>2013-05-01T08:04:45.000Z</time>
      </trkpt>
      <trkpt lat="43.60269" lon="1.2446">
        <ele>192.2</ele>
        <time>2013-05-01T08:04:52.000Z</time>
      </trkpt>
      <trkpt lat="43.6027" lon="1.24466">
        <ele>192.2</ele>
        <time>2013-05-01T08:04:55.000Z</time>
      </trkpt>
    </trkseg>
  </trk>
</gpx>